PWSweather.com
Personal Weather Stations
Station Observations
KM01CL
Kitemaniak 01, Castiglione Del LagoIT 06061

Kitemaniak 01Castiglione Del LagoIT 06061

Lat: 43.133808, Lon: 12.045753

Elevation: 997

Station Type: Ventus W831

High Low Average
Temperature 57.2°F14.0°C 43.7°F6.5°C 51.0°F10.6°C
Dew Point 52.0°F11.1°C 40.0°F4.4°C 46.6°F8.1°C
Winds 19.0 mph 30.6 kmh Calm Calm 7.0 mph SE11.3 kmh SE
Wind Gusts 28.9 mph46.5 kmh -- 9.0 mph14.5 kmh
Humidity 92% 74% 85%
Pressure 29.77 in1008.1 mb 29.61 in1002.7 mb -
Precipitation 0.11 in2.8 mm - -
Hour Temp Dew Point Humidity Winds Wind Gusts Pressure Precip Precip Rate Daily Precip Total
12:01 AM 45.1°F7.3°C 40.9°F4.9°C 85% 6.0 mph S9.7 kmh S 7.6 mph12.2 kmh 29.77 in1008.1 mb 0.00 in0.0 mm 0.00 in0.0 mm 0.00 in0.0 mm
12:03 AM 45.1°F7.3°C 40.9°F4.9°C 85% 3.8 mph SE6.1 kmh SE 4.5 mph7.2 kmh 29.77 in1008.1 mb 0.00 in0.0 mm 0.00 in0.0 mm 0.00 in0.0 mm
12:05 AM 45.1°F7.3°C 40.9°F4.9°C 85% 3.1 mph S5.0 kmh S 4.5 mph7.2 kmh 29.77 in1008.1 mb 0.00 in0.0 mm 0.00 in0.0 mm 0.00 in0.0 mm
12:07 AM 45.1°F7.3°C 40.9°F4.9°C 85% 4.5 mph SE7.2 kmh SE 5.4 mph8.7 kmh 29.77 in1008.1 mb 0.00 in0.0 mm 0.00 in0.0 mm 0.00 in0.0 mm
12:09 AM 45.1°F7.3°C 40.9°F4.9°C 85% 3.8 mph S6.1 kmh S 6.0 mph9.7 kmh 29.77 in1008.1 mb 0.00 in0.0 mm 0.00 in0.0 mm 0.00 in0.0 mm
12:11 AM 45.1°F7.3°C 40.9°F4.9°C 85% 4.5 mph S7.2 kmh S 5.4 mph8.7 kmh 29.78 in1008.5 mb 0.00 in0.0 mm 0.00 in0.0 mm 0.00 in0.0 mm
12:13 AM 45.1°F7.3°C 40.9°F4.9°C 85% 3.8 mph S6.1 kmh S 4.5 mph7.2 kmh 29.77 in1008.1 mb 0.00 in0.0 mm 0.00 in0.0 mm 0.00 in0.0 mm
12:16 AM 45.1°F7.3°C 40.9°F4.9°C 85% 6.0 mph S9.7 kmh S 8.3 mph13.4 kmh 29.77 in1008.1 mb 0.00 in0.0 mm 0.00 in0.0 mm 0.00 in0.0 mm
12:18 AM 45.1°F7.3°C 40.9°F4.9°C 85% 3.1 mph SSE5.0 kmh SSE 4.5 mph7.2 kmh 29.78 in1008.5 mb 0.00 in0.0 mm 0.00 in0.0 mm 0.00 in0.0 mm
12:20 AM 45.1°F7.3°C 40.9°F4.9°C 85% 6.0 mph S9.7 kmh S 6.9 mph11.1 kmh 29.77 in1008.1 mb 0.00 in0.0 mm 0.00 in0.0 mm 0.00 in0.0 mm
12:22 AM 45.1°F7.3°C 40.9°F4.9°C 85% 3.1 mph S5.0 kmh S 3.8 mph6.1 kmh 29.78 in1008.5 mb 0.00 in0.0 mm 0.00 in0.0 mm 0.00 in0.0 mm
12:24 AM 45.1°F7.3°C 40.9°F4.9°C 85% 3.1 mph SE5.0 kmh SE 3.8 mph6.1 kmh 29.77 in1008.1 mb 0.00 in0.0 mm 0.00 in0.0 mm 0.00 in0.0 mm
12:26 AM 45.1°F7.3°C 40.9°F4.9°C 85% 2.2 mph SE3.5 kmh SE 3.1 mph5.0 kmh 29.77 in1008.1 mb 0.00 in0.0 mm 0.00 in0.0 mm 0.00 in0.0 mm
12:28 AM 45.1°F7.3°C 40.9°F4.9°C 85% 4.5 mph SE7.2 kmh SE 6.0 mph9.7 kmh 29.76 in1007.8 mb 0.00 in0.0 mm 0.00 in0.0 mm 0.00 in0.0 mm
12:30 AM 45.1°F7.3°C 40.9°F4.9°C 85% 3.8 mph SSE6.1 kmh SSE 6.0 mph9.7 kmh 29.77 in1008.1 mb 0.00 in0.0 mm 0.00 in0.0 mm 0.00 in0.0 mm
12:32 AM 45.1°F7.3°C 40.9°F4.9°C 85% 5.4 mph SE8.7 kmh SE 6.9 mph11.1 kmh 29.77 in1008.1 mb 0.00 in0.0 mm 0.00 in0.0 mm 0.00 in0.0 mm
12:34 AM 45.1°F7.3°C 41.2°F5.1°C 86% 3.8 mph SE6.1 kmh SE 4.5 mph7.2 kmh 29.77 in1008.1 mb 0.00 in0.0 mm 0.00 in0.0 mm 0.00 in0.0 mm
12:36 AM 45.1°F7.3°C 41.2°F5.1°C 86% 2.2 mph SE3.5 kmh SE 3.1 mph5.0 kmh 29.77 in1008.1 mb 0.00 in0.0 mm 0.00 in0.0 mm 0.00 in0.0 mm
12:38 AM 45.1°F7.3°C 41.2°F5.1°C 86% 2.2 mph SE3.5 kmh SE 3.1 mph5.0 kmh 29.77 in1008.1 mb 0.00 in0.0 mm 0.00 in0.0 mm 0.00 in0.0 mm
12:40 AM 45.1°F7.3°C 41.2°F5.1°C 86% 2.2 mph S3.5 kmh S 3.8 mph6.1 kmh 29.78 in1008.5 mb 0.00 in0.0 mm 0.00 in0.0 mm 0.00 in0.0 mm
12:42 AM 45.1°F7.3°C 41.2°F5.1°C 86% 2.2 mph S3.5 kmh S 3.1 mph5.0 kmh 29.77 in1008.1 mb 0.00 in0.0 mm 0.00 in0.0 mm 0.00 in0.0 mm
12:44 AM 45.1°F7.3°C 41.2°F5.1°C 86% 4.5 mph S7.2 kmh S 5.4 mph8.7 kmh 29.77 in1008.1 mb 0.00 in0.0 mm 0.00 in0.0 mm 0.00 in0.0 mm
12:46 AM 45.1°F7.3°C 41.2°F5.1°C 86% 2.2 mph SE3.5 kmh SE 3.1 mph5.0 kmh 29.77 in1008.1 mb 0.00 in0.0 mm 0.00 in0.0 mm 0.00 in0.0 mm
12:48 AM 45.1°F7.3°C 41.2°F5.1°C 86% 3.8 mph ENE6.1 kmh ENE 4.5 mph7.2 kmh 29.77 in1008.1 mb 0.00 in0.0 mm 0.00 in0.0 mm 0.00 in0.0 mm
12:50 AM 45.1°F7.3°C 41.2°F5.1°C 86% 3.8 mph SE6.1 kmh SE 4.5 mph7.2 kmh 29.77 in1008.1 mb 0.00 in0.0 mm 0.00 in0.0 mm 0.00 in0.0 mm
12:52 AM 45.1°F7.3°C 41.2°F5.1°C 86% 4.5 mph SE7.2 kmh SE 6.9 mph11.1 kmh 29.77 in1008.1 mb 0.00 in0.0 mm 0.00 in0.0 mm 0.00 in0.0 mm
12:54 AM 45.1°F7.3°C 41.2°F5.1°C 86% 5.4 mph SE8.7 kmh SE 6.0 mph9.7 kmh 29.77 in1008.1 mb 0.00 in0.0 mm 0.00 in0.0 mm 0.00 in0.0 mm
12:56 AM 45.1°F7.3°C 41.2°F5.1°C 86% 4.5 mph E7.2 kmh E 5.4 mph8.7 kmh 29.77 in1008.1 mb 0.00 in0.0 mm 0.00 in0.0 mm 0.00 in0.0 mm
12:58 AM 45.1°F7.3°C 41.5°F5.3°C 87% 5.4 mph SE8.7 kmh SE 6.0 mph9.7 kmh 29.77 in1008.1 mb 0.00 in0.0 mm 0.00 in0.0 mm 0.00 in0.0 mm
01:00 AM 45.1°F7.3°C 41.5°F5.3°C 87% 4.5 mph E7.2 kmh E 5.4 mph8.7 kmh 29.77 in1008.1 mb 0.00 in0.0 mm 0.00 in0.0 mm 0.00 in0.0 mm
01:02 AM 45.1°F7.3°C 41.5°F5.3°C 87% 3.8 mph E6.1 kmh E 4.5 mph7.2 kmh 29.77 in1008.1 mb 0.00 in0.0 mm 0.00 in0.0 mm 0.00 in0.0 mm
01:04 AM 45.0°F7.2°C 41.3°F5.2°C 87% 3.1 mph E5.0 kmh E 3.8 mph6.1 kmh 29.77 in1008.1 mb 0.00 in0.0 mm 0.00 in0.0 mm 0.00 in0.0 mm
01:06 AM 45.0°F7.2°C 41.3°F5.2°C 87% 5.4 mph E8.7 kmh E 6.0 mph9.7 kmh 29.76 in1007.8 mb 0.00 in0.0 mm 0.00 in0.0 mm 0.00 in0.0 mm
01:08 AM 45.0°F7.2°C 41.3°F5.2°C 87% 5.4 mph SE8.7 kmh SE 6.9 mph11.1 kmh 29.76 in1007.8 mb 0.00 in0.0 mm 0.00 in0.0 mm 0.00 in0.0 mm
01:10 AM 44.8°F7.1°C 41.2°F5.1°C 87% 6.0 mph ENE9.7 kmh ENE 6.9 mph11.1 kmh 29.76 in1007.8 mb 0.00 in0.0 mm 0.00 in0.0 mm 0.00 in0.0 mm
01:12 AM 44.8°F7.1°C 41.2°F5.1°C 87% 4.5 mph E7.2 kmh E 5.4 mph8.7 kmh 29.76 in1007.8 mb 0.00 in0.0 mm 0.00 in0.0 mm 0.00 in0.0 mm
01:14 AM 44.6°F7.0°C 41.0°F5.0°C 87% 4.5 mph E7.2 kmh E 5.4 mph8.7 kmh 29.76 in1007.8 mb 0.00 in0.0 mm 0.00 in0.0 mm 0.00 in0.0 mm
01:16 AM 44.6°F7.0°C 41.0°F5.0°C 87% 4.5 mph E7.2 kmh E 6.0 mph9.7 kmh 29.76 in1007.8 mb 0.00 in0.0 mm 0.00 in0.0 mm 0.00 in0.0 mm
01:18 AM 44.6°F7.0°C 41.0°F5.0°C 87% 4.5 mph E7.2 kmh E 5.4 mph8.7 kmh 29.76 in1007.8 mb 0.00 in0.0 mm 0.00 in0.0 mm 0.00 in0.0 mm
01:20 AM 44.4°F6.9°C 40.8°F4.9°C 87% 4.5 mph E7.2 kmh E 5.4 mph8.7 kmh 29.76 in1007.8 mb 0.00 in0.0 mm 0.00 in0.0 mm 0.00 in0.0 mm
01:22 AM 44.4°F6.9°C 40.5°F4.7°C 86% 4.5 mph E7.2 kmh E 6.0 mph9.7 kmh 29.76 in1007.8 mb 0.00 in0.0 mm 0.00 in0.0 mm 0.00 in0.0 mm
01:24 AM 44.4°F6.9°C 40.5°F4.7°C 86% 6.9 mph E11.1 kmh E 7.6 mph12.2 kmh 29.76 in1007.8 mb 0.00 in0.0 mm 0.00 in0.0 mm 0.00 in0.0 mm
01:26 AM 44.2°F6.8°C 40.3°F4.6°C 86% 7.6 mph E12.2 kmh E 9.2 mph14.8 kmh 29.76 in1007.8 mb 0.00 in0.0 mm 0.00 in0.0 mm 0.00 in0.0 mm
01:28 AM 44.1°F6.7°C 40.1°F4.5°C 86% 6.0 mph E9.7 kmh E 6.9 mph11.1 kmh 29.76 in1007.8 mb 0.00 in0.0 mm 0.00 in0.0 mm 0.00 in0.0 mm
01:30 AM 43.9°F6.6°C 40.0°F4.4°C 86% 6.0 mph E9.7 kmh E 6.9 mph11.1 kmh 29.75 in1007.5 mb 0.00 in0.0 mm 0.00 in0.0 mm 0.00 in0.0 mm
01:32 AM 43.9°F6.6°C 40.0°F4.4°C 86% 6.0 mph E9.7 kmh E 6.9 mph11.1 kmh 29.75 in1007.5 mb 0.00 in0.0 mm 0.00 in0.0 mm 0.00 in0.0 mm
01:34 AM 43.9°F6.6°C 40.0°F4.4°C 86% 5.4 mph E8.7 kmh E 7.6 mph12.2 kmh 29.76 in1007.8 mb 0.00 in0.0 mm 0.00 in0.0 mm 0.00 in0.0 mm
01:36 AM 43.9°F6.6°C 40.0°F4.4°C 86% 5.4 mph E8.7 kmh E 6.9 mph11.1 kmh 29.75 in1007.5 mb 0.00 in0.0 mm 0.00 in0.0 mm 0.00 in0.0 mm
01:38 AM 43.9°F6.6°C 40.0°F4.4°C 86% 4.5 mph E7.2 kmh E 5.4 mph8.7 kmh 29.75 in1007.5 mb 0.00 in0.0 mm 0.00 in0.0 mm 0.00 in0.0 mm
01:40 AM 43.9°F6.6°C 40.0°F4.4°C 86% 5.4 mph E8.7 kmh E 6.0 mph9.7 kmh 29.76 in1007.8 mb 0.00 in0.0 mm 0.00 in0.0 mm 0.00 in0.0 mm
01:42 AM 43.9°F6.6°C 40.3°F4.6°C 87% 6.9 mph E11.1 kmh E 8.3 mph13.4 kmh 29.75 in1007.5 mb 0.00 in0.0 mm 0.00 in0.0 mm 0.00 in0.0 mm
01:44 AM 43.9°F6.6°C 40.3°F4.6°C 87% 6.0 mph E9.7 kmh E 7.6 mph12.2 kmh 29.74 in1007.1 mb 0.00 in0.0 mm 0.00 in0.0 mm 0.00 in0.0 mm
01:46 AM 44.1°F6.7°C 40.4°F4.7°C 87% 7.6 mph E12.2 kmh E 8.3 mph13.4 kmh 29.75 in1007.5 mb 0.00 in0.0 mm 0.00 in0.0 mm 0.00 in0.0 mm
01:48 AM 44.2°F6.8°C 40.6°F4.8°C 87% 10.7 mph SE17.2 kmh SE 12.1 mph19.5 kmh 29.75 in1007.5 mb 0.00 in0.0 mm 0.00 in0.0 mm 0.00 in0.0 mm
01:50 AM 44.6°F7.0°C 41.3°F5.2°C 88% 6.9 mph SE11.1 kmh SE 9.2 mph14.8 kmh 29.75 in1007.5 mb 0.00 in0.0 mm 0.00 in0.0 mm 0.00 in0.0 mm
01:52 AM 44.8°F7.1°C 41.5°F5.3°C 88% 8.3 mph SE13.4 kmh SE 11.4 mph18.3 kmh 29.74 in1007.1 mb 0.00 in0.0 mm 0.00 in0.0 mm 0.00 in0.0 mm
01:54 AM 45.0°F7.2°C 41.9°F5.5°C 89% 7.6 mph SE12.2 kmh SE 8.3 mph13.4 kmh 29.75 in1007.5 mb 0.00 in0.0 mm 0.00 in0.0 mm 0.00 in0.0 mm
01:56 AM 45.1°F7.3°C 42.1°F5.6°C 89% 5.4 mph SE8.7 kmh SE 6.9 mph11.1 kmh 29.75 in1007.5 mb 0.00 in0.0 mm 0.00 in0.0 mm 0.00 in0.0 mm
01:58 AM 45.3°F7.4°C 42.3°F5.7°C 89% 7.6 mph SE12.2 kmh SE 8.3 mph13.4 kmh 29.74 in1007.1 mb 0.00 in0.0 mm 0.00 in0.0 mm 0.00 in0.0 mm
02:00 AM 45.3°F7.4°C 42.6°F5.9°C 90% 6.0 mph SE9.7 kmh SE 8.3 mph13.4 kmh 29.74 in1007.1 mb 0.00 in0.0 mm 0.00 in0.0 mm 0.00 in0.0 mm
02:02 AM 45.3°F7.4°C 42.6°F5.9°C 90% 6.0 mph SE9.7 kmh SE 8.3 mph13.4 kmh 29.75 in1007.5 mb 0.00 in0.0 mm 0.00 in0.0 mm 0.00 in0.0 mm
02:04 AM 45.3°F7.4°C 42.6°F5.9°C 90% 6.0 mph SE9.7 kmh SE 8.3 mph13.4 kmh 29.75 in1007.5 mb 0.00 in0.0 mm 0.00 in0.0 mm 0.00 in0.0 mm
02:06 AM 45.3°F7.4°C 42.6°F5.9°C 90% 6.0 mph SE9.7 kmh SE 8.3 mph13.4 kmh 29.75 in1007.5 mb 0.00 in0.0 mm 0.00 in0.0 mm 0.00 in0.0 mm
02:08 AM 45.5°F7.5°C 41.0°F5.0°C 84% 6.0 mph E9.7 kmh E 7.6 mph12.2 kmh 29.75 in1007.5 mb 0.00 in0.0 mm 0.00 in0.0 mm 0.00 in0.0 mm
02:10 AM 45.3°F7.4°C 42.6°F5.9°C 90% 4.5 mph E7.2 kmh E 5.4 mph8.7 kmh 29.75 in1007.5 mb 0.00 in0.0 mm 0.00 in0.0 mm 0.00 in0.0 mm
02:12 AM 45.1°F7.3°C 42.1°F5.6°C 89% 3.8 mph E6.1 kmh E 4.5 mph7.2 kmh 29.74 in1007.1 mb 0.00 in0.0 mm 0.00 in0.0 mm 0.00 in0.0 mm
02:14 AM 45.0°F7.2°C 41.9°F5.5°C 89% 2.2 mph SE3.5 kmh SE 3.8 mph6.1 kmh 29.75 in1007.5 mb 0.00 in0.0 mm 0.00 in0.0 mm 0.00 in0.0 mm
02:16 AM 45.0°F7.2°C 41.9°F5.5°C 89% 3.1 mph E5.0 kmh E 3.8 mph6.1 kmh 29.76 in1007.8 mb 0.00 in0.0 mm 0.00 in0.0 mm 0.00 in0.0 mm
02:18 AM 44.8°F7.1°C 41.5°F5.3°C 88% 4.5 mph SE7.2 kmh SE 6.0 mph9.7 kmh 29.76 in1007.8 mb 0.00 in0.0 mm 0.00 in0.0 mm 0.00 in0.0 mm
02:20 AM 44.8°F7.1°C 41.5°F5.3°C 88% 3.1 mph E5.0 kmh E 3.8 mph6.1 kmh 29.75 in1007.5 mb 0.00 in0.0 mm 0.00 in0.0 mm 0.00 in0.0 mm
02:22 AM 44.6°F7.0°C 41.3°F5.2°C 88% 2.2 mph SE3.5 kmh SE 2.2 mph3.5 kmh 29.75 in1007.5 mb 0.00 in0.0 mm 0.00 in0.0 mm 0.00 in0.0 mm
02:24 AM 44.6°F7.0°C 41.3°F5.2°C 88% 2.2 mph E3.5 kmh E 3.1 mph5.0 kmh 29.75 in1007.5 mb 0.00 in0.0 mm 0.00 in0.0 mm 0.00 in0.0 mm
02:26 AM 44.6°F7.0°C 41.3°F5.2°C 88% 3.1 mph E5.0 kmh E 3.8 mph6.1 kmh 29.75 in1007.5 mb 0.00 in0.0 mm 0.00 in0.0 mm 0.00 in0.0 mm
02:28 AM 44.4°F6.9°C 41.1°F5.1°C 88% 2.2 mph E3.5 kmh E 3.1 mph5.0 kmh 29.75 in1007.5 mb 0.00 in0.0 mm 0.00 in0.0 mm 0.00 in0.0 mm
02:30 AM 44.4°F6.9°C 41.1°F5.1°C 88% 3.8 mph E6.1 kmh E 4.5 mph7.2 kmh 29.75 in1007.5 mb 0.00 in0.0 mm 0.00 in0.0 mm 0.00 in0.0 mm
02:32 AM 44.4°F6.9°C 41.1°F5.1°C 88% 2.2 mph SE3.5 kmh SE 3.1 mph5.0 kmh 29.76 in1007.8 mb 0.00 in0.0 mm 0.00 in0.0 mm 0.00 in0.0 mm
02:34 AM 44.4°F6.9°C 41.1°F5.1°C 88% 1.6 mph E2.6 kmh E 2.2 mph3.5 kmh 29.76 in1007.8 mb 0.00 in0.0 mm 0.00 in0.0 mm 0.00 in0.0 mm
02:36 AM 44.4°F6.9°C 41.1°F5.1°C 88% 1.6 mph E2.6 kmh E 2.2 mph3.5 kmh 29.75 in1007.5 mb 0.00 in0.0 mm 0.00 in0.0 mm 0.00 in0.0 mm
02:38 AM 44.4°F6.9°C 41.1°F5.1°C 88% 0.7 mph E1.1 kmh E 1.6 mph2.6 kmh 29.75 in1007.5 mb 0.00 in0.0 mm 0.00 in0.0 mm 0.00 in0.0 mm
02:40 AM 44.4°F6.9°C 41.1°F5.1°C 88% 1.6 mph SE2.6 kmh SE 2.2 mph3.5 kmh 29.75 in1007.5 mb 0.00 in0.0 mm 0.00 in0.0 mm 0.00 in0.0 mm
02:42 AM 44.4°F6.9°C 41.1°F5.1°C 88% 3.1 mph E5.0 kmh E 3.8 mph6.1 kmh 29.75 in1007.5 mb 0.00 in0.0 mm 0.00 in0.0 mm 0.00 in0.0 mm
02:44 AM 44.4°F6.9°C 41.1°F5.1°C 88% 3.1 mph E5.0 kmh E 3.8 mph6.1 kmh 29.75 in1007.5 mb 0.00 in0.0 mm 0.00 in0.0 mm 0.00 in0.0 mm
02:46 AM 44.4°F6.9°C 41.1°F5.1°C 88% 3.1 mph SE5.0 kmh SE 3.8 mph6.1 kmh 29.75 in1007.5 mb 0.00 in0.0 mm 0.00 in0.0 mm 0.00 in0.0 mm
02:48 AM 44.4°F6.9°C 41.1°F5.1°C 88% 3.8 mph SE6.1 kmh SE 4.5 mph7.2 kmh 29.75 in1007.5 mb 0.00 in0.0 mm 0.00 in0.0 mm 0.00 in0.0 mm
02:50 AM 44.4°F6.9°C 41.1°F5.1°C 88% 4.5 mph SE7.2 kmh SE 5.4 mph8.7 kmh 29.75 in1007.5 mb 0.00 in0.0 mm 0.00 in0.0 mm 0.00 in0.0 mm
02:52 AM 44.2°F6.8°C 40.9°F4.9°C 88% 0.7 mph SE1.1 kmh SE 1.6 mph2.6 kmh 29.75 in1007.5 mb 0.00 in0.0 mm 0.00 in0.0 mm 0.00 in0.0 mm
02:54 AM 44.2°F6.8°C 40.9°F4.9°C 88% 1.6 mph SE2.6 kmh SE 2.2 mph3.5 kmh 29.74 in1007.1 mb 0.01 in0.3 mm 0.35 in8.9 mm 0.01 in0.3 mm
02:56 AM 44.4°F6.9°C 41.1°F5.1°C 88% 1.6 mph SE2.6 kmh SE 2.2 mph3.5 kmh 29.75 in1007.5 mb 0.01 in0.3 mm 0.00 in0.0 mm 0.01 in0.3 mm
02:58 AM 44.4°F6.9°C 41.1°F5.1°C 88% 2.2 mph SE3.5 kmh SE 3.1 mph5.0 kmh 29.74 in1007.1 mb 0.01 in0.3 mm 0.00 in0.0 mm 0.01 in0.3 mm
03:00 AM 44.4°F6.9°C 41.1°F5.1°C 88% 3.1 mph SE5.0 kmh SE 3.8 mph6.1 kmh 29.75 in1007.5 mb 0.01 in0.3 mm 0.00 in0.0 mm 0.01 in0.3 mm
03:02 AM 44.4°F6.9°C 41.1°F5.1°C 88% 2.2 mph SE3.5 kmh SE 3.1 mph5.0 kmh 29.74 in1007.1 mb 0.01 in0.3 mm 0.00 in0.0 mm 0.01 in0.3 mm
03:05 AM 44.4°F6.9°C 41.1°F5.1°C 88% 3.1 mph SE5.0 kmh SE 3.8 mph6.1 kmh 29.74 in1007.1 mb 0.02 in0.5 mm 0.24 in6.1 mm 0.02 in0.5 mm
03:06 AM 44.4°F6.9°C 41.1°F5.1°C 88% 3.1 mph SE5.0 kmh SE 3.8 mph6.1 kmh 29.75 in1007.5 mb 0.02 in0.5 mm 0.00 in0.0 mm 0.02 in0.5 mm
03:09 AM 44.4°F6.9°C 41.1°F5.1°C 88% 2.2 mph SE3.5 kmh SE 3.1 mph5.0 kmh 29.75 in1007.5 mb 0.02 in0.5 mm 0.00 in0.0 mm 0.02 in0.5 mm
03:11 AM 44.4°F6.9°C 41.1°F5.1°C 88% 1.6 mph SE2.6 kmh SE 2.2 mph3.5 kmh 29.74 in1007.1 mb 0.02 in0.5 mm 0.00 in0.0 mm 0.02 in0.5 mm
03:13 AM 44.4°F6.9°C 41.1°F5.1°C 88% 0.7 mph SE1.1 kmh SE 1.6 mph2.6 kmh 29.75 in1007.5 mb 0.02 in0.5 mm 0.00 in0.0 mm 0.02 in0.5 mm
03:15 AM 44.4°F6.9°C 41.1°F5.1°C 88% 2.2 mph E3.5 kmh E 2.2 mph3.5 kmh 29.74 in1007.1 mb 0.02 in0.5 mm 0.00 in0.0 mm 0.02 in0.5 mm
03:17 AM 44.4°F6.9°C 41.1°F5.1°C 88% 1.6 mph E2.6 kmh E 2.2 mph3.5 kmh 29.74 in1007.1 mb 0.02 in0.5 mm 0.00 in0.0 mm 0.02 in0.5 mm
03:19 AM 44.4°F6.9°C 41.1°F5.1°C 88% 1.6 mph E2.6 kmh E 2.2 mph3.5 kmh 29.74 in1007.1 mb 0.02 in0.5 mm 0.00 in0.0 mm 0.02 in0.5 mm
03:21 AM 44.4°F6.9°C 41.1°F5.1°C 88% 0.7 mph SE1.1 kmh SE 2.2 mph3.5 kmh 29.74 in1007.1 mb 0.02 in0.5 mm 0.00 in0.0 mm 0.02 in0.5 mm
03:23 AM 44.2°F6.8°C 40.9°F4.9°C 88% 0.7 mph E1.1 kmh E 1.6 mph2.6 kmh 29.74 in1007.1 mb 0.02 in0.5 mm 0.00 in0.0 mm 0.02 in0.5 mm
03:25 AM 44.2°F6.8°C 40.9°F4.9°C 88% 1.6 mph E2.6 kmh E 2.2 mph3.5 kmh 29.75 in1007.5 mb 0.02 in0.5 mm 0.00 in0.0 mm 0.02 in0.5 mm
03:27 AM 44.2°F6.8°C 41.2°F5.1°C 89% 2.2 mph NE3.5 kmh NE 3.1 mph5.0 kmh 29.75 in1007.5 mb 0.02 in0.5 mm 0.00 in0.0 mm 0.02 in0.5 mm
03:29 AM 44.2°F6.8°C 41.2°F5.1°C 89% 2.2 mph E3.5 kmh E 3.1 mph5.0 kmh 29.74 in1007.1 mb 0.02 in0.5 mm 0.00 in0.0 mm 0.02 in0.5 mm
03:31 AM 44.2°F6.8°C 41.2°F5.1°C 89% 1.6 mph E2.6 kmh E 2.2 mph3.5 kmh 29.74 in1007.1 mb 0.02 in0.5 mm 0.00 in0.0 mm 0.02 in0.5 mm
03:33 AM 44.2°F6.8°C 41.2°F5.1°C 89% 0.7 mph E1.1 kmh E 1.6 mph2.6 kmh 29.74 in1007.1 mb 0.02 in0.5 mm 0.00 in0.0 mm 0.02 in0.5 mm
03:35 AM 44.2°F6.8°C 41.2°F5.1°C 89% 0.7 mph E1.1 kmh E 1.6 mph2.6 kmh 29.74 in1007.1 mb 0.02 in0.5 mm 0.00 in0.0 mm 0.02 in0.5 mm
03:37 AM 44.2°F6.8°C 41.2°F5.1°C 89% 2.2 mph E3.5 kmh E 3.8 mph6.1 kmh 29.74 in1007.1 mb 0.02 in0.5 mm 0.00 in0.0 mm 0.02 in0.5 mm
03:39 AM 44.1°F6.7°C 41.0°F5.0°C 89% 1.6 mph NE2.6 kmh NE 2.2 mph3.5 kmh 29.74 in1007.1 mb 0.02 in0.5 mm 0.00 in0.0 mm 0.02 in0.5 mm
03:41 AM 44.1°F6.7°C 41.0°F5.0°C 89% 0.7 mph NE1.1 kmh NE 1.6 mph2.6 kmh 29.74 in1007.1 mb 0.02 in0.5 mm 0.00 in0.0 mm 0.02 in0.5 mm
03:43 AM 44.1°F6.7°C 41.0°F5.0°C 89% 2.2 mph 3.5 kmh 3.1 mph5.0 kmh 29.74 in1007.1 mb 0.02 in0.5 mm 0.00 in0.0 mm 0.02 in0.5 mm
03:45 AM 43.9°F6.6°C 40.9°F4.9°C 89% 1.6 mph 2.6 kmh 1.6 mph2.6 kmh 29.74 in1007.1 mb 0.02 in0.5 mm 0.00 in0.0 mm 0.02 in0.5 mm
03:47 AM 43.7°F6.5°C 40.7°F4.8°C 89% 3.1 mph 5.0 kmh 4.5 mph7.2 kmh 29.74 in1007.1 mb 0.02 in0.5 mm 0.00 in0.0 mm 0.02 in0.5 mm
03:49 AM 43.7°F6.5°C 40.7°F4.8°C 89% 3.8 mph NE6.1 kmh NE 4.5 mph7.2 kmh 29.74 in1007.1 mb 0.02 in0.5 mm 0.00 in0.0 mm 0.02 in0.5 mm
03:51 AM 43.7°F6.5°C 40.7°F4.8°C 89% 0.7 mph NNW1.1 kmh NNW 2.2 mph3.5 kmh 29.74 in1007.1 mb 0.02 in0.5 mm 0.00 in0.0 mm 0.02 in0.5 mm
03:53 AM 43.7°F6.5°C 40.7°F4.8°C 89% 1.6 mph NE2.6 kmh NE 3.1 mph5.0 kmh 29.74 in1007.1 mb 0.01 in0.3 mm 0.00 in0.0 mm 0.02 in0.5 mm
03:55 AM 43.9°F6.6°C 40.9°F4.9°C 89% 0.7 mph NE1.1 kmh NE 1.6 mph2.6 kmh 29.74 in1007.1 mb 0.01 in0.3 mm 0.00 in0.0 mm 0.02 in0.5 mm
03:57 AM 43.7°F6.5°C 40.7°F4.8°C 89% 2.2 mph NE3.5 kmh NE 3.8 mph6.1 kmh 29.74 in1007.1 mb 0.01 in0.3 mm 0.00 in0.0 mm 0.02 in0.5 mm
03:59 AM 43.7°F6.5°C 40.7°F4.8°C 89% 0.7 mph E1.1 kmh E 1.6 mph2.6 kmh 29.74 in1007.1 mb 0.01 in0.3 mm 0.00 in0.0 mm 0.02 in0.5 mm
04:01 AM 43.7°F6.5°C 40.7°F4.8°C 89% 1.6 mph SE2.6 kmh SE 2.2 mph3.5 kmh 29.74 in1007.1 mb 0.01 in0.3 mm 0.00 in0.0 mm 0.02 in0.5 mm
04:03 AM 43.7°F6.5°C 40.7°F4.8°C 89% 1.6 mph NE2.6 kmh NE 3.1 mph5.0 kmh 29.74 in1007.1 mb 0.00 in0.0 mm 0.00 in0.0 mm 0.02 in0.5 mm
04:05 AM 43.7°F6.5°C 40.7°F4.8°C 89% 2.2 mph E3.5 kmh E 3.8 mph6.1 kmh 29.74 in1007.1 mb 0.00 in0.0 mm 0.00 in0.0 mm 0.02 in0.5 mm
04:07 AM 43.7°F6.5°C 40.7°F4.8°C 89% 3.1 mph ENE5.0 kmh ENE 3.8 mph6.1 kmh 29.74 in1007.1 mb 0.00 in0.0 mm 0.00 in0.0 mm 0.02 in0.5 mm
04:09 AM 43.7°F6.5°C 40.7°F4.8°C 89% 1.6 mph SE2.6 kmh SE 2.2 mph3.5 kmh 29.74 in1007.1 mb 0.00 in0.0 mm 0.00 in0.0 mm 0.02 in0.5 mm
04:11 AM 43.7°F6.5°C 40.7°F4.8°C 89% 0.7 mph E1.1 kmh E 1.6 mph2.6 kmh 29.74 in1007.1 mb 0.00 in0.0 mm 0.00 in0.0 mm 0.02 in0.5 mm
04:13 AM 43.7°F6.5°C 40.7°F4.8°C 89% 0.7 mph E1.1 kmh E 2.2 mph3.5 kmh 29.74 in1007.1 mb 0.00 in0.0 mm 0.00 in0.0 mm 0.02 in0.5 mm
04:15 AM 43.7°F6.5°C 40.7°F4.8°C 89% Calm Calm 0.7 mph1.1 kmh 29.75 in1007.5 mb 0.00 in0.0 mm 0.00 in0.0 mm 0.02 in0.5 mm
04:17 AM 43.7°F6.5°C 40.7°F4.8°C 89% 1.6 mph NE2.6 kmh NE 3.1 mph5.0 kmh 29.74 in1007.1 mb 0.00 in0.0 mm 0.00 in0.0 mm 0.02 in0.5 mm
04:19 AM 43.7°F6.5°C 40.7°F4.8°C 89% 4.5 mph NE7.2 kmh NE 5.4 mph8.7 kmh 29.74 in1007.1 mb 0.00 in0.0 mm 0.00 in0.0 mm 0.02 in0.5 mm
04:21 AM 43.7°F6.5°C 40.7°F4.8°C 89% 3.8 mph NE6.1 kmh NE 4.5 mph7.2 kmh 29.74 in1007.1 mb 0.00 in0.0 mm 0.00 in0.0 mm 0.02 in0.5 mm
04:23 AM 43.7°F6.5°C 40.7°F4.8°C 89% 3.1 mph NE5.0 kmh NE 4.5 mph7.2 kmh 29.74 in1007.1 mb 0.00 in0.0 mm 0.00 in0.0 mm 0.02 in0.5 mm
04:25 AM 43.7°F6.5°C 41.0°F5.0°C 90% 2.2 mph NNE3.5 kmh NNE 3.1 mph5.0 kmh 29.74 in1007.1 mb 0.00 in0.0 mm 0.00 in0.0 mm 0.02 in0.5 mm
04:27 AM 43.7°F6.5°C 41.0°F5.0°C 90% 3.1 mph E5.0 kmh E 3.8 mph6.1 kmh 29.74 in1007.1 mb 0.00 in0.0 mm 0.00 in0.0 mm 0.02 in0.5 mm
04:29 AM 43.7°F6.5°C 41.0°F5.0°C 90% 2.2 mph SE3.5 kmh SE 3.1 mph5.0 kmh 29.74 in1007.1 mb 0.00 in0.0 mm 0.00 in0.0 mm 0.02 in0.5 mm
04:31 AM 43.7°F6.5°C 41.0°F5.0°C 90% 5.4 mph E8.7 kmh E 6.0 mph9.7 kmh 29.74 in1007.1 mb 0.00 in0.0 mm 0.00 in0.0 mm 0.02 in0.5 mm
04:33 AM 43.7°F6.5°C 41.0°F5.0°C 90% 2.2 mph E3.5 kmh E 3.1 mph5.0 kmh 29.74 in1007.1 mb 0.00 in0.0 mm 0.00 in0.0 mm 0.02 in0.5 mm
04:35 AM 43.9°F6.6°C 41.1°F5.1°C 90% 2.2 mph SE3.5 kmh SE 3.1 mph5.0 kmh 29.74 in1007.1 mb 0.00 in0.0 mm 0.00 in0.0 mm 0.02 in0.5 mm
04:37 AM 43.9°F6.6°C 41.1°F5.1°C 90% 1.6 mph SE2.6 kmh SE 2.2 mph3.5 kmh 29.74 in1007.1 mb 0.00 in0.0 mm 0.00 in0.0 mm 0.02 in0.5 mm
04:39 AM 44.1°F6.7°C 41.3°F5.2°C 90% 0.7 mph E1.1 kmh E 2.2 mph3.5 kmh 29.74 in1007.1 mb 0.00 in0.0 mm 0.00 in0.0 mm 0.02 in0.5 mm
04:41 AM 44.1°F6.7°C 41.3°F5.2°C 90% 2.2 mph NE3.5 kmh NE 3.1 mph5.0 kmh 29.74 in1007.1 mb 0.00 in0.0 mm 0.00 in0.0 mm 0.02 in0.5 mm
04:43 AM 44.2°F6.8°C 41.5°F5.3°C 90% 1.6 mph E2.6 kmh E 2.2 mph3.5 kmh 29.74 in1007.1 mb 0.00 in0.0 mm 0.00 in0.0 mm 0.02 in0.5 mm
04:45 AM 44.2°F6.8°C 41.5°F5.3°C 90% 1.6 mph NE2.6 kmh NE 2.2 mph3.5 kmh 29.74 in1007.1 mb 0.00 in0.0 mm 0.00 in0.0 mm 0.02 in0.5 mm
04:47 AM 44.2°F6.8°C 41.5°F5.3°C 90% 0.7 mph NE1.1 kmh NE 1.6 mph2.6 kmh 29.74 in1007.1 mb 0.00 in0.0 mm 0.00 in0.0 mm 0.02 in0.5 mm
04:49 AM 44.4°F6.9°C 41.7°F5.4°C 90% 1.6 mph NE2.6 kmh NE 3.1 mph5.0 kmh 29.74 in1007.1 mb 0.00 in0.0 mm 0.00 in0.0 mm 0.02 in0.5 mm
04:51 AM 44.4°F6.9°C 41.7°F5.4°C 90% Calm Calm 0.7 mph1.1 kmh 29.74 in1007.1 mb 0.00 in0.0 mm 0.00 in0.0 mm 0.02 in0.5 mm
04:53 AM 44.4°F6.9°C 41.7°F5.4°C 90% 1.6 mph NE2.6 kmh NE 2.2 mph3.5 kmh 29.74 in1007.1 mb 0.00 in0.0 mm 0.00 in0.0 mm 0.02 in0.5 mm
04:55 AM 44.4°F6.9°C 41.7°F5.4°C 90% 1.6 mph E2.6 kmh E 2.2 mph3.5 kmh 29.74 in1007.1 mb 0.00 in0.0 mm 0.00 in0.0 mm 0.02 in0.5 mm
04:57 AM 44.4°F6.9°C 41.7°F5.4°C 90% 1.6 mph E2.6 kmh E 2.2 mph3.5 kmh 29.74 in1007.1 mb 0.00 in0.0 mm 0.00 in0.0 mm 0.02 in0.5 mm
04:59 AM 44.4°F6.9°C 41.7°F5.4°C 90% 2.2 mph E3.5 kmh E 3.1 mph5.0 kmh 29.74 in1007.1 mb 0.00 in0.0 mm 0.00 in0.0 mm 0.02 in0.5 mm
05:01 AM 44.4°F6.9°C 41.7°F5.4°C 90% 1.6 mph E2.6 kmh E 2.2 mph3.5 kmh 29.74 in1007.1 mb 0.00 in0.0 mm 0.00 in0.0 mm 0.02 in0.5 mm
05:03 AM 44.2°F6.8°C 41.5°F5.3°C 90% 0.7 mph E1.1 kmh E 1.6 mph2.6 kmh 29.74 in1007.1 mb 0.00 in0.0 mm 0.00 in0.0 mm 0.02 in0.5 mm
05:05 AM 44.2°F6.8°C 41.5°F5.3°C 90% 0.7 mph E1.1 kmh E 2.2 mph3.5 kmh 29.74 in1007.1 mb 0.00 in0.0 mm 0.00 in0.0 mm 0.02 in0.5 mm
05:07 AM 44.1°F6.7°C 41.3°F5.2°C 90% 1.6 mph E2.6 kmh E 2.2 mph3.5 kmh 29.74 in1007.1 mb 0.00 in0.0 mm 0.00 in0.0 mm 0.02 in0.5 mm
05:09 AM 44.1°F6.7°C 41.3°F5.2°C 90% 2.2 mph E3.5 kmh E 3.1 mph5.0 kmh 29.74 in1007.1 mb 0.00 in0.0 mm 0.00 in0.0 mm 0.02 in0.5 mm
05:11 AM 44.1°F6.7°C 41.3°F5.2°C 90% 1.6 mph E2.6 kmh E 2.2 mph3.5 kmh 29.74 in1007.1 mb 0.00 in0.0 mm 0.00 in0.0 mm 0.02 in0.5 mm
05:13 AM 43.9°F6.6°C 41.1°F5.1°C 90% Calm Calm 0.7 mph1.1 kmh 29.74 in1007.1 mb 0.00 in0.0 mm 0.00 in0.0 mm 0.02 in0.5 mm
05:15 AM 43.9°F6.6°C 41.1°F5.1°C 90% 0.7 mph E1.1 kmh E 1.6 mph2.6 kmh 29.74 in1007.1 mb 0.00 in0.0 mm 0.00 in0.0 mm 0.02 in0.5 mm
05:17 AM 43.9°F6.6°C 41.1°F5.1°C 90% Calm Calm -- 29.74 in1007.1 mb 0.00 in0.0 mm 0.00 in0.0 mm 0.02 in0.5 mm
05:19 AM 43.9°F6.6°C 41.1°F5.1°C 90% 6.9 mph NE11.1 kmh NE 7.6 mph12.2 kmh 29.73 in1006.8 mb 0.00 in0.0 mm 0.00 in0.0 mm 0.02 in0.5 mm
05:21 AM 43.9°F6.6°C 41.1°F5.1°C 90% 6.0 mph NE9.7 kmh NE 6.9 mph11.1 kmh 29.74 in1007.1 mb 0.00 in0.0 mm 0.00 in0.0 mm 0.02 in0.5 mm
05:23 AM 43.9°F6.6°C 41.1°F5.1°C 90% 5.4 mph NE8.7 kmh NE 6.0 mph9.7 kmh 29.74 in1007.1 mb 0.00 in0.0 mm 0.00 in0.0 mm 0.02 in0.5 mm
05:25 AM 43.9°F6.6°C 41.1°F5.1°C 90% 3.1 mph NE5.0 kmh NE 4.5 mph7.2 kmh 29.74 in1007.1 mb 0.00 in0.0 mm 0.00 in0.0 mm 0.02 in0.5 mm
05:27 AM 43.9°F6.6°C 41.1°F5.1°C 90% Calm Calm 0.7 mph1.1 kmh 29.74 in1007.1 mb 0.00 in0.0 mm 0.00 in0.0 mm 0.02 in0.5 mm
05:29 AM 43.9°F6.6°C 41.1°F5.1°C 90% 1.6 mph E2.6 kmh E 2.2 mph3.5 kmh 29.74 in1007.1 mb 0.00 in0.0 mm 0.00 in0.0 mm 0.02 in0.5 mm
05:31 AM 44.1°F6.7°C 41.3°F5.2°C 90% 0.7 mph E1.1 kmh E 1.6 mph2.6 kmh 29.73 in1006.8 mb 0.00 in0.0 mm 0.00 in0.0 mm 0.02 in0.5 mm
05:33 AM 44.1°F6.7°C 41.3°F5.2°C 90% 0.7 mph E1.1 kmh E 1.6 mph2.6 kmh 29.74 in1007.1 mb 0.00 in0.0 mm 0.00 in0.0 mm 0.02 in0.5 mm
05:35 AM 44.2°F6.8°C 41.5°F5.3°C 90% 1.6 mph E2.6 kmh E 2.2 mph3.5 kmh 29.74 in1007.1 mb 0.01 in0.3 mm 0.35 in8.9 mm 0.04 in1.0 mm
05:37 AM 44.2°F6.8°C 41.5°F5.3°C 90% 1.6 mph E2.6 kmh E 2.2 mph3.5 kmh 29.73 in1006.8 mb 0.01 in0.3 mm 0.00 in0.0 mm 0.04 in1.0 mm
05:39 AM 44.4°F6.9°C 42.0°F5.6°C 91% 2.2 mph SE3.5 kmh SE 3.1 mph5.0 kmh 29.74 in1007.1 mb 0.01 in0.3 mm 0.00 in0.0 mm 0.04 in1.0 mm
05:41 AM 44.4°F6.9°C 42.0°F5.6°C 91% 3.8 mph E6.1 kmh E 4.5 mph7.2 kmh 29.73 in1006.8 mb 0.01 in0.3 mm 0.00 in0.0 mm 0.04 in1.0 mm
05:43 AM 44.6°F7.0°C 42.1°F5.6°C 91% 0.7 mph NE1.1 kmh NE 2.2 mph3.5 kmh 29.73 in1006.8 mb 0.01 in0.3 mm 0.00 in0.0 mm 0.04 in1.0 mm
05:45 AM 44.6°F7.0°C 42.1°F5.6°C 91% 2.2 mph NNE3.5 kmh NNE 3.1 mph5.0 kmh 29.73 in1006.8 mb 0.01 in0.3 mm 0.00 in0.0 mm 0.04 in1.0 mm
05:47 AM 44.6°F7.0°C 42.1°F5.6°C 91% 0.7 mph NNE1.1 kmh NNE 1.6 mph2.6 kmh 29.74 in1007.1 mb 0.01 in0.3 mm 0.00 in0.0 mm 0.04 in1.0 mm
05:49 AM 44.6°F7.0°C 42.1°F5.6°C 91% 0.7 mph NNE1.1 kmh NNE 0.7 mph1.1 kmh 29.73 in1006.8 mb 0.01 in0.3 mm 0.00 in0.0 mm 0.04 in1.0 mm
05:51 AM 44.8°F7.1°C 42.3°F5.7°C 91% Calm Calm 0.7 mph1.1 kmh 29.73 in1006.8 mb 0.01 in0.3 mm 0.00 in0.0 mm 0.04 in1.0 mm
05:53 AM 44.8°F7.1°C 42.3°F5.7°C 91% Calm Calm -- 29.73 in1006.8 mb 0.01 in0.3 mm 0.00 in0.0 mm 0.04 in1.0 mm
05:55 AM 44.8°F7.1°C 42.3°F5.7°C 91% Calm Calm -- 29.73 in1006.8 mb 0.01 in0.3 mm 0.00 in0.0 mm 0.04 in1.0 mm
05:57 AM 45.0°F7.2°C 42.5°F5.8°C 91% 0.7 mph NNE1.1 kmh NNE 0.7 mph1.1 kmh 29.73 in1006.8 mb 0.01 in0.3 mm 0.00 in0.0 mm 0.04 in1.0 mm
06:00 AM 45.0°F7.2°C 42.5°F5.8°C 91% Calm Calm -- 29.73 in1006.8 mb 0.01 in0.3 mm 0.00 in0.0 mm 0.04 in1.0 mm
06:02 AM 45.1°F7.3°C 42.7°F5.9°C 91% Calm Calm -- 29.73 in1006.8 mb 0.01 in0.3 mm 0.00 in0.0 mm 0.04 in1.0 mm
06:04 AM 45.3°F7.4°C 42.9°F6.1°C 91% Calm Calm -- 29.73 in1006.8 mb 0.01 in0.3 mm 0.00 in0.0 mm 0.04 in1.0 mm
06:06 AM 45.3°F7.4°C 42.9°F6.1°C 91% 0.7 mph NNE1.1 kmh NNE 1.6 mph2.6 kmh 29.74 in1007.1 mb 0.01 in0.3 mm 0.00 in0.0 mm 0.04 in1.0 mm
06:08 AM 45.3°F7.4°C 42.9°F6.1°C 91% 2.2 mph SE3.5 kmh SE 3.1 mph5.0 kmh 29.72 in1006.4 mb 0.01 in0.3 mm 0.00 in0.0 mm 0.04 in1.0 mm
06:10 AM 45.5°F7.5°C 41.9°F5.5°C 87% 0.7 mph SE1.1 kmh SE 1.6 mph2.6 kmh 29.73 in1006.8 mb 0.01 in0.3 mm 0.00 in0.0 mm 0.04 in1.0 mm
06:12 AM 45.7°F7.6°C 42.0°F5.6°C 87% 0.7 mph SE1.1 kmh SE 1.6 mph2.6 kmh 29.72 in1006.4 mb 0.01 in0.3 mm 0.00 in0.0 mm 0.04 in1.0 mm
06:14 AM 45.7°F7.6°C 42.0°F5.6°C 87% 0.7 mph SE1.1 kmh SE 1.6 mph2.6 kmh 29.73 in1006.8 mb 0.01 in0.3 mm 0.00 in0.0 mm 0.04 in1.0 mm
06:16 AM 45.9°F7.7°C 42.2°F5.7°C 87% 2.2 mph SE3.5 kmh SE 3.8 mph6.1 kmh 29.73 in1006.8 mb 0.01 in0.3 mm 0.00 in0.0 mm 0.04 in1.0 mm
06:18 AM 45.9°F7.7°C 42.2°F5.7°C 87% 3.1 mph E5.0 kmh E 4.5 mph7.2 kmh 29.72 in1006.4 mb 0.01 in0.3 mm 0.00 in0.0 mm 0.04 in1.0 mm
06:20 AM 46.0°F7.8°C 42.4°F5.8°C 87% 1.6 mph SSE2.6 kmh SSE 2.2 mph3.5 kmh 29.72 in1006.4 mb 0.01 in0.3 mm 0.00 in0.0 mm 0.04 in1.0 mm
06:22 AM 46.2°F7.9°C 42.6°F5.9°C 87% 1.6 mph SSE2.6 kmh SSE 3.1 mph5.0 kmh 29.73 in1006.8 mb 0.01 in0.3 mm 0.00 in0.0 mm 0.04 in1.0 mm
06:24 AM 46.2°F7.9°C 42.9°F6.1°C 88% 2.2 mph SE3.5 kmh SE 3.1 mph5.0 kmh 29.73 in1006.8 mb 0.01 in0.3 mm 0.00 in0.0 mm 0.04 in1.0 mm
06:26 AM 46.6°F8.1°C 43.2°F6.2°C 88% 2.2 mph SE3.5 kmh SE 3.1 mph5.0 kmh 29.73 in1006.8 mb 0.01 in0.3 mm 0.00 in0.0 mm 0.04 in1.0 mm
06:28 AM 46.6°F8.1°C 43.2°F6.2°C 88% 3.1 mph S5.0 kmh S 3.8 mph6.1 kmh 29.73 in1006.8 mb 0.01 in0.3 mm 0.00 in0.0 mm 0.04 in1.0 mm
06:30 AM 46.9°F8.3°C 43.6°F6.4°C 88% 3.8 mph SE6.1 kmh SE 4.5 mph7.2 kmh 29.73 in1006.8 mb 0.01 in0.3 mm 0.00 in0.0 mm 0.04 in1.0 mm
06:32 AM 46.9°F8.3°C 43.6°F6.4°C 88% 3.1 mph SE5.0 kmh SE 4.5 mph7.2 kmh 29.73 in1006.8 mb 0.01 in0.3 mm 0.00 in0.0 mm 0.04 in1.0 mm
06:34 AM 47.3°F8.5°C 44.2°F6.8°C 89% 2.2 mph SE3.5 kmh SE 3.1 mph5.0 kmh 29.73 in1006.8 mb 0.00 in0.0 mm 0.00 in0.0 mm 0.04 in1.0 mm
06:36 AM 47.3°F8.5°C 44.2°F6.8°C 89% 3.8 mph SE6.1 kmh SE 5.4 mph8.7 kmh 29.73 in1006.8 mb 0.00 in0.0 mm 0.00 in0.0 mm 0.04 in1.0 mm
06:38 AM 47.5°F8.6°C 44.4°F6.9°C 89% 3.8 mph SE6.1 kmh SE 6.0 mph9.7 kmh 29.72 in1006.4 mb 0.00 in0.0 mm 0.00 in0.0 mm 0.04 in1.0 mm
06:40 AM 47.7°F8.7°C 44.6°F7.0°C 89% 3.8 mph SE6.1 kmh SE 5.4 mph8.7 kmh 29.72 in1006.4 mb 0.00 in0.0 mm 0.00 in0.0 mm 0.04 in1.0 mm
06:42 AM 47.8°F8.8°C 44.8°F7.1°C 89% 4.5 mph SE7.2 kmh SE 7.6 mph12.2 kmh 29.72 in1006.4 mb 0.00 in0.0 mm 0.00 in0.0 mm 0.04 in1.0 mm
06:44 AM 48.0°F8.9°C 45.2°F7.3°C 90% 4.5 mph SE7.2 kmh SE 6.9 mph11.1 kmh 29.72 in1006.4 mb 0.00 in0.0 mm 0.00 in0.0 mm 0.04 in1.0 mm
06:46 AM 48.0°F8.9°C 45.2°F7.3°C 90% 5.4 mph S8.7 kmh S 6.9 mph11.1 kmh 29.72 in1006.4 mb 0.00 in0.0 mm 0.00 in0.0 mm 0.04 in1.0 mm
06:48 AM 48.2°F9.0°C 45.4°F7.4°C 90% 6.9 mph SE11.1 kmh SE 8.3 mph13.4 kmh 29.72 in1006.4 mb 0.00 in0.0 mm 0.00 in0.0 mm 0.04 in1.0 mm
06:50 AM 48.4°F9.1°C 45.6°F7.6°C 90% 8.3 mph SE13.4 kmh SE 9.8 mph15.8 kmh 29.72 in1006.4 mb 0.00 in0.0 mm 0.00 in0.0 mm 0.04 in1.0 mm
06:52 AM 48.6°F9.2°C 45.8°F7.7°C 90% 6.0 mph ENE9.7 kmh ENE 7.6 mph12.2 kmh 29.71 in1006.1 mb 0.00 in0.0 mm 0.00 in0.0 mm 0.04 in1.0 mm
06:54 AM 48.7°F9.3°C 45.9°F7.7°C 90% 7.6 mph ENE12.2 kmh ENE 9.8 mph15.8 kmh 29.71 in1006.1 mb 0.00 in0.0 mm 0.00 in0.0 mm 0.04 in1.0 mm
06:56 AM 48.7°F9.3°C 45.9°F7.7°C 90% 6.0 mph SE9.7 kmh SE 9.8 mph15.8 kmh 29.72 in1006.4 mb 0.00 in0.0 mm 0.00 in0.0 mm 0.04 in1.0 mm
06:58 AM 48.7°F9.3°C 45.9°F7.7°C 90% 6.0 mph SE9.7 kmh SE 7.6 mph12.2 kmh 29.72 in1006.4 mb 0.00 in0.0 mm 0.00 in0.0 mm 0.04 in1.0 mm
07:00 AM 48.7°F9.3°C 45.9°F7.7°C 90% 6.0 mph SE9.7 kmh SE 7.6 mph12.2 kmh 29.72 in1006.4 mb 0.00 in0.0 mm 0.00 in0.0 mm 0.04 in1.0 mm
07:02 AM 48.7°F9.3°C 45.9°F7.7°C 90% 5.4 mph SE8.7 kmh SE 6.9 mph11.1 kmh 29.72 in1006.4 mb 0.00 in0.0 mm 0.00 in0.0 mm 0.04 in1.0 mm
07:04 AM 48.9°F9.4°C 46.1°F7.8°C 90% 8.3 mph S13.4 kmh S 9.8 mph15.8 kmh 29.71 in1006.1 mb 0.00 in0.0 mm 0.00 in0.0 mm 0.04 in1.0 mm
07:06 AM 48.9°F9.4°C 46.1°F7.8°C 90% 3.8 mph SE6.1 kmh SE 4.5 mph7.2 kmh 29.72 in1006.4 mb 0.00 in0.0 mm 0.00 in0.0 mm 0.04 in1.0 mm
07:08 AM 48.9°F9.4°C 46.1°F7.8°C 90% 5.4 mph SE8.7 kmh SE 6.9 mph11.1 kmh 29.71 in1006.1 mb 0.00 in0.0 mm 0.00 in0.0 mm 0.04 in1.0 mm
07:10 AM 48.9°F9.4°C 46.1°F7.8°C 90% 3.8 mph SE6.1 kmh SE 5.4 mph8.7 kmh 29.72 in1006.4 mb 0.00 in0.0 mm 0.00 in0.0 mm 0.04 in1.0 mm
07:12 AM 49.1°F9.5°C 46.3°F7.9°C 90% 4.5 mph E7.2 kmh E 5.4 mph8.7 kmh 29.71 in1006.1 mb 0.00 in0.0 mm 0.00 in0.0 mm 0.04 in1.0 mm
07:14 AM 49.1°F9.5°C 46.3°F7.9°C 90% 9.2 mph S14.8 kmh S 11.4 mph18.3 kmh 29.72 in1006.4 mb 0.00 in0.0 mm 0.00 in0.0 mm 0.04 in1.0 mm
07:16 AM 49.1°F9.5°C 46.3°F7.9°C 90% 8.3 mph SE13.4 kmh SE 9.8 mph15.8 kmh 29.72 in1006.4 mb 0.00 in0.0 mm 0.00 in0.0 mm 0.04 in1.0 mm
07:18 AM 49.3°F9.6°C 46.5°F8.1°C 90% 3.8 mph SE6.1 kmh SE 5.4 mph8.7 kmh 29.72 in1006.4 mb 0.00 in0.0 mm 0.00 in0.0 mm 0.04 in1.0 mm
07:20 AM 49.3°F9.6°C 46.8°F8.2°C 91% 3.8 mph S6.1 kmh S 5.4 mph8.7 kmh 29.72 in1006.4 mb 0.00 in0.0 mm 0.00 in0.0 mm 0.04 in1.0 mm
07:22 AM 49.3°F9.6°C 46.8°F8.2°C 91% 3.8 mph S6.1 kmh S 5.4 mph8.7 kmh 29.72 in1006.4 mb 0.00 in0.0 mm 0.00 in0.0 mm 0.04 in1.0 mm
07:24 AM 49.3°F9.6°C 46.8°F8.2°C 91% 3.1 mph S5.0 kmh S 3.8 mph6.1 kmh 29.72 in1006.4 mb 0.00 in0.0 mm 0.00 in0.0 mm 0.04 in1.0 mm
07:26 AM 49.3°F9.6°C 46.8°F8.2°C 91% 3.8 mph SE6.1 kmh SE 4.5 mph7.2 kmh 29.71 in1006.1 mb 0.00 in0.0 mm 0.00 in0.0 mm 0.04 in1.0 mm
07:28 AM 49.3°F9.6°C 46.8°F8.2°C 91% 6.9 mph SE11.1 kmh SE 8.3 mph13.4 kmh 29.72 in1006.4 mb 0.00 in0.0 mm 0.00 in0.0 mm 0.04 in1.0 mm
07:30 AM 49.3°F9.6°C 46.8°F8.2°C 91% 3.1 mph SSE5.0 kmh SSE 4.5 mph7.2 kmh 29.72 in1006.4 mb 0.00 in0.0 mm 0.00 in0.0 mm 0.04 in1.0 mm
07:32 AM 49.3°F9.6°C 46.8°F8.2°C 91% 3.1 mph S5.0 kmh S 4.5 mph7.2 kmh 29.71 in1006.1 mb 0.00 in0.0 mm 0.00 in0.0 mm 0.04 in1.0 mm
07:34 AM 49.3°F9.6°C 46.8°F8.2°C 91% 2.2 mph S3.5 kmh S 3.1 mph5.0 kmh 29.72 in1006.4 mb 0.00 in0.0 mm 0.00 in0.0 mm 0.04 in1.0 mm
07:36 AM 49.3°F9.6°C 46.8°F8.2°C 91% 3.8 mph SE6.1 kmh SE 4.5 mph7.2 kmh 29.72 in1006.4 mb 0.00 in0.0 mm 0.00 in0.0 mm 0.04 in1.0 mm
07:38 AM 49.3°F9.6°C 46.8°F8.2°C 91% 3.1 mph SE5.0 kmh SE 3.8 mph6.1 kmh 29.71 in1006.1 mb 0.00 in0.0 mm 0.00 in0.0 mm 0.04 in1.0 mm
07:40 AM 49.3°F9.6°C 46.8°F8.2°C 91% 5.4 mph SE8.7 kmh SE 6.9 mph11.1 kmh 29.71 in1006.1 mb 0.00 in0.0 mm 0.00 in0.0 mm 0.04 in1.0 mm
07:42 AM 49.3°F9.6°C 46.8°F8.2°C 91% 3.8 mph SSE6.1 kmh SSE 5.4 mph8.7 kmh 29.71 in1006.1 mb 0.00 in0.0 mm 0.00 in0.0 mm 0.04 in1.0 mm
07:44 AM 49.5°F9.7°C 46.9°F8.3°C 91% 3.8 mph SSE6.1 kmh SSE 6.9 mph11.1 kmh 29.72 in1006.4 mb 0.00 in0.0 mm 0.00 in0.0 mm 0.04 in1.0 mm
07:46 AM 49.5°F9.7°C 46.9°F8.3°C 91% 5.4 mph SE8.7 kmh SE 6.9 mph11.1 kmh 29.72 in1006.4 mb 0.00 in0.0 mm 0.00 in0.0 mm 0.04 in1.0 mm
07:48 AM 49.5°F9.7°C 46.9°F8.3°C 91% 4.5 mph S7.2 kmh S 5.4 mph8.7 kmh 29.71 in1006.1 mb 0.00 in0.0 mm 0.00 in0.0 mm 0.04 in1.0 mm
07:50 AM 49.5°F9.7°C 46.9°F8.3°C 91% 5.4 mph S8.7 kmh S 6.9 mph11.1 kmh 29.71 in1006.1 mb 0.00 in0.0 mm 0.00 in0.0 mm 0.04 in1.0 mm
07:52 AM 49.5°F9.7°C 46.9°F8.3°C 91% 4.5 mph SE7.2 kmh SE 6.0 mph9.7 kmh 29.72 in1006.4 mb 0.00 in0.0 mm 0.00 in0.0 mm 0.04 in1.0 mm
07:54 AM 49.5°F9.7°C 46.9°F8.3°C 91% 4.5 mph S7.2 kmh S 6.0 mph9.7 kmh 29.71 in1006.1 mb 0.00 in0.0 mm 0.00 in0.0 mm 0.04 in1.0 mm
07:56 AM 49.6°F9.8°C 47.1°F8.4°C 91% 2.2 mph S3.5 kmh S 3.1 mph5.0 kmh 29.73 in1006.8 mb 0.00 in0.0 mm 0.00 in0.0 mm 0.04 in1.0 mm
07:58 AM 49.6°F9.8°C 47.1°F8.4°C 91% 3.1 mph SE5.0 kmh SE 3.8 mph6.1 kmh 29.72 in1006.4 mb 0.00 in0.0 mm 0.00 in0.0 mm 0.04 in1.0 mm
08:00 AM 49.6°F9.8°C 47.1°F8.4°C 91% 2.2 mph S3.5 kmh S 3.1 mph5.0 kmh 29.72 in1006.4 mb 0.00 in0.0 mm 0.00 in0.0 mm 0.04 in1.0 mm
08:02 AM 49.6°F9.8°C 47.1°F8.4°C 91% 2.2 mph S3.5 kmh S 3.1 mph5.0 kmh 29.72 in1006.4 mb 0.00 in0.0 mm 0.00 in0.0 mm 0.04 in1.0 mm
08:04 AM 49.6°F9.8°C 47.1°F8.4°C 91% 2.2 mph S3.5 kmh S 3.1 mph5.0 kmh 29.72 in1006.4 mb 0.00 in0.0 mm 0.00 in0.0 mm 0.04 in1.0 mm
08:06 AM 49.6°F9.8°C 47.1°F8.4°C 91% 6.0 mph S9.7 kmh S 8.3 mph13.4 kmh 29.72 in1006.4 mb 0.00 in0.0 mm 0.00 in0.0 mm 0.04 in1.0 mm
08:08 AM 49.8°F9.9°C 47.3°F8.5°C 91% 3.8 mph S6.1 kmh S 5.4 mph8.7 kmh 29.72 in1006.4 mb 0.00 in0.0 mm 0.00 in0.0 mm 0.04 in1.0 mm
08:10 AM 49.8°F9.9°C 47.3°F8.5°C 91% 3.8 mph S6.1 kmh S 4.5 mph7.2 kmh 29.73 in1006.8 mb 0.00 in0.0 mm 0.00 in0.0 mm 0.04 in1.0 mm
08:12 AM 49.8°F9.9°C 47.3°F8.5°C 91% 3.1 mph SSE5.0 kmh SSE 3.8 mph6.1 kmh 29.72 in1006.4 mb 0.00 in0.0 mm 0.00 in0.0 mm 0.04 in1.0 mm
08:14 AM 49.8°F9.9°C 47.3°F8.5°C 91% 3.1 mph S5.0 kmh S 3.8 mph6.1 kmh 29.72 in1006.4 mb 0.00 in0.0 mm 0.00 in0.0 mm 0.04 in1.0 mm
08:16 AM 50.0°F10.0°C 47.5°F8.6°C 91% 5.4 mph S8.7 kmh S 6.9 mph11.1 kmh 29.72 in1006.4 mb 0.00 in0.0 mm 0.00 in0.0 mm 0.04 in1.0 mm
08:18 AM 50.0°F10.0°C 47.5°F8.6°C 91% 3.1 mph S5.0 kmh S 4.5 mph7.2 kmh 29.73 in1006.8 mb 0.00 in0.0 mm 0.00 in0.0 mm 0.04 in1.0 mm
08:20 AM 50.0°F10.0°C 47.5°F8.6°C 91% 3.8 mph SE6.1 kmh SE 4.5 mph7.2 kmh 29.73 in1006.8 mb 0.00 in0.0 mm 0.00 in0.0 mm 0.04 in1.0 mm
08:22 AM 50.0°F10.0°C 47.5°F8.6°C 91% 3.8 mph SE6.1 kmh SE 4.5 mph7.2 kmh 29.73 in1006.8 mb 0.00 in0.0 mm 0.00 in0.0 mm 0.04 in1.0 mm
08:24 AM 50.2°F10.1°C 47.7°F8.7°C 91% 2.2 mph SE3.5 kmh SE 3.1 mph5.0 kmh 29.73 in1006.8 mb 0.00 in0.0 mm 0.00 in0.0 mm 0.04 in1.0 mm
08:26 AM 50.2°F10.1°C 47.7°F8.7°C 91% 1.6 mph SE2.6 kmh SE 2.2 mph3.5 kmh 29.73 in1006.8 mb 0.00 in0.0 mm 0.00 in0.0 mm 0.04 in1.0 mm
08:28 AM 50.2°F10.1°C 47.7°F8.7°C 91% 2.2 mph SE3.5 kmh SE 3.1 mph5.0 kmh 29.74 in1007.1 mb 0.00 in0.0 mm 0.00 in0.0 mm 0.04 in1.0 mm
08:30 AM 50.2°F10.1°C 47.7°F8.7°C 91% 3.8 mph SSE6.1 kmh SSE 3.8 mph6.1 kmh 29.73 in1006.8 mb 0.00 in0.0 mm 0.00 in0.0 mm 0.04 in1.0 mm
08:32 AM 50.2°F10.1°C 47.7°F8.7°C 91% 3.8 mph SE6.1 kmh SE 5.4 mph8.7 kmh 29.73 in1006.8 mb 0.00 in0.0 mm 0.00 in0.0 mm 0.04 in1.0 mm
08:34 AM 50.2°F10.1°C 47.7°F8.7°C 91% 3.8 mph SE6.1 kmh SE 5.4 mph8.7 kmh 29.73 in1006.8 mb 0.00 in0.0 mm 0.00 in0.0 mm 0.04 in1.0 mm
08:36 AM 50.2°F10.1°C 47.7°F8.7°C 91% 3.8 mph SE6.1 kmh SE 6.0 mph9.7 kmh 29.74 in1007.1 mb 0.00 in0.0 mm 0.00 in0.0 mm 0.04 in1.0 mm
08:38 AM 50.2°F10.1°C 47.7°F8.7°C 91% 4.5 mph SE7.2 kmh SE 5.4 mph8.7 kmh 29.73 in1006.8 mb 0.00 in0.0 mm 0.00 in0.0 mm 0.04 in1.0 mm
08:40 AM 50.2°F10.1°C 47.7°F8.7°C 91% 4.5 mph SE7.2 kmh SE 5.4 mph8.7 kmh 29.73 in1006.8 mb 0.00 in0.0 mm 0.00 in0.0 mm 0.04 in1.0 mm
08:44 AM 50.4°F10.2°C 47.8°F8.8°C 91% 4.5 mph SE7.2 kmh SE 6.0 mph9.7 kmh 29.73 in1006.8 mb 0.00 in0.0 mm 0.00 in0.0 mm 0.04 in1.0 mm
08:46 AM 50.2°F10.1°C 47.7°F8.7°C 91% 6.9 mph S11.1 kmh S 8.3 mph13.4 kmh 29.73 in1006.8 mb 0.00 in0.0 mm 0.00 in0.0 mm 0.04 in1.0 mm
08:48 AM 50.2°F10.1°C 47.7°F8.7°C 91% 3.8 mph SE6.1 kmh SE 5.4 mph8.7 kmh 29.73 in1006.8 mb 0.00 in0.0 mm 0.00 in0.0 mm 0.04 in1.0 mm
08:50 AM 50.4°F10.2°C 47.8°F8.8°C 91% 4.5 mph SE7.2 kmh SE 6.9 mph11.1 kmh 29.73 in1006.8 mb 0.00 in0.0 mm 0.00 in0.0 mm 0.04 in1.0 mm
08:52 AM 50.4°F10.2°C 47.8°F8.8°C 91% 3.8 mph SE6.1 kmh SE 4.5 mph7.2 kmh 29.73 in1006.8 mb 0.00 in0.0 mm 0.00 in0.0 mm 0.04 in1.0 mm
08:55 AM 50.5°F10.3°C 48.0°F8.9°C 91% 4.5 mph SE7.2 kmh SE 5.4 mph8.7 kmh 29.73 in1006.8 mb 0.00 in0.0 mm 0.00 in0.0 mm 0.04 in1.0 mm
08:56 AM 50.7°F10.4°C 48.2°F9.0°C 91% 5.4 mph SE8.7 kmh SE 6.0 mph9.7 kmh 29.73 in1006.8 mb 0.00 in0.0 mm 0.00 in0.0 mm 0.04 in1.0 mm
08:58 AM 50.7°F10.4°C 48.2°F9.0°C 91% 3.8 mph SE6.1 kmh SE 5.4 mph8.7 kmh 29.73 in1006.8 mb 0.00 in0.0 mm 0.00 in0.0 mm 0.04 in1.0 mm
09:00 AM 50.7°F10.4°C 48.2°F9.0°C 91% 6.9 mph SE11.1 kmh SE 8.3 mph13.4 kmh 29.73 in1006.8 mb 0.00 in0.0 mm 0.00 in0.0 mm 0.04 in1.0 mm
09:02 AM 50.7°F10.4°C 48.2°F9.0°C 91% 7.6 mph ENE12.2 kmh ENE 8.3 mph13.4 kmh 29.73 in1006.8 mb 0.00 in0.0 mm 0.00 in0.0 mm 0.04 in1.0 mm
09:04 AM 50.7°F10.4°C 48.2°F9.0°C 91% 3.8 mph SE6.1 kmh SE 5.4 mph8.7 kmh 29.73 in1006.8 mb 0.00 in0.0 mm 0.00 in0.0 mm 0.04 in1.0 mm
09:08 AM 50.7°F10.4°C 48.2°F9.0°C 91% 6.0 mph SSE9.7 kmh SSE 7.6 mph12.2 kmh 29.73 in1006.8 mb 0.00 in0.0 mm 0.00 in0.0 mm 0.04 in1.0 mm
09:10 AM 50.7°F10.4°C 48.2°F9.0°C 91% 2.2 mph SE3.5 kmh SE 3.1 mph5.0 kmh 29.73 in1006.8 mb 0.00 in0.0 mm 0.00 in0.0 mm 0.04 in1.0 mm
09:12 AM 50.7°F10.4°C 48.2°F9.0°C 91% 3.8 mph SE6.1 kmh SE 5.4 mph8.7 kmh 29.73 in1006.8 mb 0.00 in0.0 mm 0.00 in0.0 mm 0.04 in1.0 mm
09:14 AM 50.5°F10.3°C 48.0°F8.9°C 91% 4.5 mph SE7.2 kmh SE 6.0 mph9.7 kmh 29.74 in1007.1 mb 0.00 in0.0 mm 0.00 in0.0 mm 0.04 in1.0 mm
09:16 AM 50.7°F10.4°C 48.2°F9.0°C 91% 6.9 mph SE11.1 kmh SE 7.6 mph12.2 kmh 29.73 in1006.8 mb 0.00 in0.0 mm 0.00 in0.0 mm 0.04 in1.0 mm
09:18 AM 50.5°F10.3°C 48.0°F8.9°C 91% 4.5 mph SE7.2 kmh SE 5.4 mph8.7 kmh 29.73 in1006.8 mb 0.00 in0.0 mm 0.00 in0.0 mm 0.04 in1.0 mm
09:20 AM 50.5°F10.3°C 48.0°F8.9°C 91% 6.0 mph SE9.7 kmh SE 6.9 mph11.1 kmh 29.73 in1006.8 mb 0.00 in0.0 mm 0.00 in0.0 mm 0.04 in1.0 mm
09:22 AM 50.5°F10.3°C 48.0°F8.9°C 91% 3.8 mph SE6.1 kmh SE 4.5 mph7.2 kmh 29.73 in1006.8 mb 0.00 in0.0 mm 0.00 in0.0 mm 0.04 in1.0 mm
09:24 AM 50.5°F10.3°C 48.0°F8.9°C 91% 5.4 mph ENE8.7 kmh ENE 5.4 mph8.7 kmh 29.74 in1007.1 mb 0.00 in0.0 mm 0.00 in0.0 mm 0.04 in1.0 mm
09:26 AM 50.4°F10.2°C 47.8°F8.8°C 91% 4.5 mph SE7.2 kmh SE 5.4 mph8.7 kmh 29.73 in1006.8 mb 0.00 in0.0 mm 0.00 in0.0 mm 0.04 in1.0 mm
09:28 AM 50.4°F10.2°C 47.8°F8.8°C 91% 4.5 mph SE7.2 kmh SE 5.4 mph8.7 kmh 29.73 in1006.8 mb 0.00 in0.0 mm 0.00 in0.0 mm 0.04 in1.0 mm
09:30 AM 50.4°F10.2°C 47.8°F8.8°C 91% 5.4 mph SE8.7 kmh SE 6.9 mph11.1 kmh 29.73 in1006.8 mb 0.00 in0.0 mm 0.00 in0.0 mm 0.04 in1.0 mm
09:32 AM 50.4°F10.2°C 47.8°F8.8°C 91% 5.4 mph SE8.7 kmh SE 6.9 mph11.1 kmh 29.73 in1006.8 mb 0.00 in0.0 mm 0.00 in0.0 mm 0.04 in1.0 mm
09:34 AM 50.5°F10.3°C 48.0°F8.9°C 91% 2.2 mph SE3.5 kmh SE 3.1 mph5.0 kmh 29.73 in1006.8 mb 0.00 in0.0 mm 0.00 in0.0 mm 0.04 in1.0 mm
09:36 AM 50.7°F10.4°C 48.2°F9.0°C 91% 6.0 mph S9.7 kmh S 6.9 mph11.1 kmh 29.73 in1006.8 mb 0.00 in0.0 mm 0.00 in0.0 mm 0.04 in1.0 mm
09:38 AM 50.7°F10.4°C 48.2°F9.0°C 91% 5.4 mph S8.7 kmh S 6.9 mph11.1 kmh 29.73 in1006.8 mb 0.00 in0.0 mm 0.00 in0.0 mm 0.04 in1.0 mm
09:40 AM 50.9°F10.5°C 48.4°F9.1°C 91% 3.1 mph S5.0 kmh S 4.5 mph7.2 kmh 29.74 in1007.1 mb 0.00 in0.0 mm 0.00 in0.0 mm 0.04 in1.0 mm
09:42 AM 50.9°F10.5°C 48.4°F9.1°C 91% 3.1 mph S5.0 kmh S 4.5 mph7.2 kmh 29.73 in1006.8 mb 0.00 in0.0 mm 0.00 in0.0 mm 0.04 in1.0 mm
09:44 AM 51.1°F10.6°C 48.5°F9.2°C 91% 5.4 mph S8.7 kmh S 6.0 mph9.7 kmh 29.73 in1006.8 mb 0.00 in0.0 mm 0.00 in0.0 mm 0.04 in1.0 mm
09:46 AM 51.3°F10.7°C 48.7°F9.3°C 91% 4.5 mph SE7.2 kmh SE 6.0 mph9.7 kmh 29.73 in1006.8 mb 0.00 in0.0 mm 0.00 in0.0 mm 0.04 in1.0 mm
09:48 AM 51.3°F10.7°C 48.7°F9.3°C 91% 6.9 mph SE11.1 kmh SE 9.2 mph14.8 kmh 29.73 in1006.8 mb 0.00 in0.0 mm 0.00 in0.0 mm 0.04 in1.0 mm
09:50 AM 51.4°F10.8°C 48.9°F9.4°C 91% 4.5 mph S7.2 kmh S 6.0 mph9.7 kmh 29.73 in1006.8 mb 0.00 in0.0 mm 0.00 in0.0 mm 0.04 in1.0 mm
09:52 AM 51.6°F10.9°C 49.1°F9.5°C 91% 9.2 mph SE14.8 kmh SE 13.0 mph20.9 kmh 29.73 in1006.8 mb 0.00 in0.0 mm 0.00 in0.0 mm 0.04 in1.0 mm
09:54 AM 51.8°F11.0°C 49.3°F9.6°C 91% 4.5 mph S7.2 kmh S 9.2 mph14.8 kmh 29.73 in1006.8 mb 0.00 in0.0 mm 0.00 in0.0 mm 0.04 in1.0 mm
09:56 AM 51.8°F11.0°C 49.3°F9.6°C 91% 7.6 mph S12.2 kmh S 10.7 mph17.2 kmh 29.74 in1007.1 mb 0.00 in0.0 mm 0.00 in0.0 mm 0.04 in1.0 mm
09:58 AM 52.0°F11.1°C 49.4°F9.7°C 91% 3.8 mph S6.1 kmh S 4.5 mph7.2 kmh 29.74 in1007.1 mb 0.00 in0.0 mm 0.00 in0.0 mm 0.04 in1.0 mm
10:00 AM 52.0°F11.1°C 49.4°F9.7°C 91% 5.4 mph S8.7 kmh S 6.9 mph11.1 kmh 29.73 in1006.8 mb 0.00 in0.0 mm 0.00 in0.0 mm 0.04 in1.0 mm
10:02 AM 52.0°F11.1°C 49.4°F9.7°C 91% 5.4 mph S8.7 kmh S 6.9 mph11.1 kmh 29.73 in1006.8 mb 0.00 in0.0 mm 0.00 in0.0 mm 0.04 in1.0 mm
10:04 AM 52.0°F11.1°C 49.4°F9.7°C 91% 5.4 mph S8.7 kmh S 6.9 mph11.1 kmh 29.73 in1006.8 mb 0.00 in0.0 mm 0.00 in0.0 mm 0.04 in1.0 mm
10:06 AM 52.0°F11.1°C 49.4°F9.7°C 91% 5.4 mph S8.7 kmh S 6.9 mph11.1 kmh 29.73 in1006.8 mb 0.00 in0.0 mm 0.00 in0.0 mm 0.04 in1.0 mm
10:08 AM 52.0°F11.1°C 49.4°F9.7°C 91% 5.4 mph S8.7 kmh S 6.9 mph11.1 kmh 29.73 in1006.8 mb 0.00 in0.0 mm 0.00 in0.0 mm 0.04 in1.0 mm
10:10 AM 52.5°F11.4°C 50.3°F10.2°C 92% 6.9 mph S11.1 kmh S 8.3 mph13.4 kmh 29.74 in1007.1 mb 0.00 in0.0 mm 0.00 in0.0 mm 0.04 in1.0 mm
10:12 AM 52.5°F11.4°C 50.3°F10.2°C 92% 5.4 mph SE8.7 kmh SE 6.9 mph11.1 kmh 29.73 in1006.8 mb 0.00 in0.0 mm 0.00 in0.0 mm 0.04 in1.0 mm
10:14 AM 52.7°F11.5°C 50.4°F10.2°C 92% 6.0 mph SE9.7 kmh SE 8.3 mph13.4 kmh 29.73 in1006.8 mb 0.00 in0.0 mm 0.00 in0.0 mm 0.04 in1.0 mm
10:16 AM 52.7°F11.5°C 50.4°F10.2°C 92% 6.9 mph S11.1 kmh S 9.2 mph14.8 kmh 29.73 in1006.8 mb 0.00 in0.0 mm 0.00 in0.0 mm 0.04 in1.0 mm
10:18 AM 52.9°F11.6°C 50.6°F10.3°C 92% 4.5 mph S7.2 kmh S 5.4 mph8.7 kmh 29.73 in1006.8 mb 0.00 in0.0 mm 0.00 in0.0 mm 0.04 in1.0 mm
10:20 AM 53.1°F11.7°C 50.8°F10.4°C 92% 6.9 mph SE11.1 kmh SE 9.2 mph14.8 kmh 29.73 in1006.8 mb 0.00 in0.0 mm 0.00 in0.0 mm 0.04 in1.0 mm
10:23 AM 53.2°F11.8°C 51.0°F10.6°C 92% 8.3 mph SE13.4 kmh SE 10.7 mph17.2 kmh 29.74 in1007.1 mb 0.00 in0.0 mm 0.00 in0.0 mm 0.04 in1.0 mm
10:24 AM 53.2°F11.8°C 51.0°F10.6°C 92% 5.4 mph S8.7 kmh S 6.0 mph9.7 kmh 29.73 in1006.8 mb 0.00 in0.0 mm 0.00 in0.0 mm 0.04 in1.0 mm
10:27 AM 53.4°F11.9°C 51.2°F10.7°C 92% 3.8 mph SSE6.1 kmh SSE 5.4 mph8.7 kmh 29.72 in1006.4 mb 0.00 in0.0 mm 0.00 in0.0 mm 0.04 in1.0 mm
10:29 AM 53.4°F11.9°C 51.2°F10.7°C 92% 7.6 mph SE12.2 kmh SE 8.3 mph13.4 kmh 29.73 in1006.8 mb 0.00 in0.0 mm 0.00 in0.0 mm 0.04 in1.0 mm
10:31 AM 53.6°F12.0°C 51.3°F10.7°C 92% 7.6 mph S12.2 kmh S 11.4 mph18.3 kmh 29.72 in1006.4 mb 0.00 in0.0 mm 0.00 in0.0 mm 0.04 in1.0 mm
10:33 AM 53.6°F12.0°C 51.3°F10.7°C 92% 5.4 mph S8.7 kmh S 7.6 mph12.2 kmh 29.72 in1006.4 mb 0.00 in0.0 mm 0.00 in0.0 mm 0.04 in1.0 mm
10:35 AM 53.6°F12.0°C 51.3°F10.7°C 92% 8.3 mph S13.4 kmh S 11.4 mph18.3 kmh 29.72 in1006.4 mb 0.00 in0.0 mm 0.00 in0.0 mm 0.04 in1.0 mm
10:37 AM 53.8°F12.1°C 51.5°F10.8°C 92% 8.3 mph S13.4 kmh S 12.1 mph19.5 kmh 29.73 in1006.8 mb 0.00 in0.0 mm 0.00 in0.0 mm 0.04 in1.0 mm
10:39 AM 53.8°F12.1°C 51.5°F10.8°C 92% 6.0 mph E9.7 kmh E 7.6 mph12.2 kmh 29.72 in1006.4 mb 0.00 in0.0 mm 0.00 in0.0 mm 0.04 in1.0 mm
10:41 AM 54.0°F12.2°C 51.7°F10.9°C 92% 13.7 mph S22.0 kmh S 17.5 mph28.2 kmh 29.72 in1006.4 mb 0.00 in0.0 mm 0.00 in0.0 mm 0.04 in1.0 mm
10:43 AM 54.1°F12.3°C 51.9°F11.1°C 92% 5.4 mph S8.7 kmh S 7.6 mph12.2 kmh 29.72 in1006.4 mb 0.00 in0.0 mm 0.00 in0.0 mm 0.04 in1.0 mm
10:45 AM 54.1°F12.3°C 51.9°F11.1°C 92% 9.8 mph SE15.8 kmh SE 13.7 mph22.0 kmh 29.73 in1006.8 mb 0.00 in0.0 mm 0.00 in0.0 mm 0.04 in1.0 mm
10:47 AM 54.3°F12.4°C 52.0°F11.1°C 92% 9.2 mph S14.8 kmh S 11.4 mph18.3 kmh 29.71 in1006.1 mb 0.00 in0.0 mm 0.00 in0.0 mm 0.04 in1.0 mm
10:49 AM 54.3°F12.4°C 52.0°F11.1°C 92% 6.0 mph SE9.7 kmh SE 8.3 mph13.4 kmh 29.72 in1006.4 mb 0.00 in0.0 mm 0.00 in0.0 mm 0.04 in1.0 mm
10:51 AM 54.5°F12.5°C 51.3°F10.7°C 89% 9.8 mph S15.8 kmh S 10.7 mph17.2 kmh 29.72 in1006.4 mb 0.00 in0.0 mm 0.00 in0.0 mm 0.04 in1.0 mm
10:53 AM 54.7°F12.6°C 51.2°F10.7°C 88% 11.4 mph S18.3 kmh S 15.2 mph24.5 kmh 29.73 in1006.8 mb 0.00 in0.0 mm 0.00 in0.0 mm 0.04 in1.0 mm
10:55 AM 54.7°F12.6°C 51.2°F10.7°C 88% 9.8 mph SE15.8 kmh SE 15.2 mph24.5 kmh 29.71 in1006.1 mb 0.01 in0.3 mm 0.35 in8.9 mm 0.05 in1.3 mm
10:57 AM 54.7°F12.6°C 51.2°F10.7°C 88% 8.3 mph S13.4 kmh S 11.4 mph18.3 kmh 29.73 in1006.8 mb 0.01 in0.3 mm 0.00 in0.0 mm 0.05 in1.3 mm
10:59 AM 54.9°F12.7°C 51.4°F10.8°C 88% 7.6 mph S12.2 kmh S 9.2 mph14.8 kmh 29.72 in1006.4 mb 0.01 in0.3 mm 0.00 in0.0 mm 0.05 in1.3 mm
11:01 AM 55.0°F12.8°C 51.2°F10.7°C 87% 6.0 mph S9.7 kmh S 7.6 mph12.2 kmh 29.73 in1006.8 mb 0.01 in0.3 mm 0.00 in0.0 mm 0.05 in1.3 mm
11:03 AM 55.2°F12.9°C 51.4°F10.8°C 87% 11.4 mph S18.3 kmh S 13.7 mph22.0 kmh 29.72 in1006.4 mb 0.01 in0.3 mm 0.00 in0.0 mm 0.05 in1.3 mm
11:05 AM 55.2°F12.9°C 51.4°F10.8°C 87% 6.0 mph S9.7 kmh S 7.6 mph12.2 kmh 29.72 in1006.4 mb 0.01 in0.3 mm 0.00 in0.0 mm 0.05 in1.3 mm
11:07 AM 55.4°F13.0°C 51.3°F10.7°C 86% 6.9 mph S11.1 kmh S 9.2 mph14.8 kmh 29.73 in1006.8 mb 0.01 in0.3 mm 0.00 in0.0 mm 0.05 in1.3 mm
11:09 AM 55.4°F13.0°C 51.3°F10.7°C 86% 6.0 mph S9.7 kmh S 7.6 mph12.2 kmh 29.73 in1006.8 mb 0.01 in0.3 mm 0.00 in0.0 mm 0.05 in1.3 mm
11:11 AM 55.6°F13.1°C 51.5°F10.8°C 86% 10.7 mph S17.2 kmh S 13.0 mph20.9 kmh 29.73 in1006.8 mb 0.01 in0.3 mm 0.00 in0.0 mm 0.05 in1.3 mm
11:13 AM 55.8°F13.2°C 51.3°F10.7°C 85% 9.8 mph S15.8 kmh S 13.7 mph22.0 kmh 29.73 in1006.8 mb 0.01 in0.3 mm 0.00 in0.0 mm 0.05 in1.3 mm
11:15 AM 55.8°F13.2°C 51.3°F10.7°C 85% 8.3 mph S13.4 kmh S 13.7 mph22.0 kmh 29.72 in1006.4 mb 0.01 in0.3 mm 0.00 in0.0 mm 0.05 in1.3 mm
11:17 AM 55.8°F13.2°C 51.0°F10.6°C 84% 8.3 mph SE13.4 kmh SE 10.7 mph17.2 kmh 29.72 in1006.4 mb 0.01 in0.3 mm 0.00 in0.0 mm 0.05 in1.3 mm
11:19 AM 55.6°F13.1°C 50.5°F10.3°C 83% 9.8 mph SSE15.8 kmh SSE 11.4 mph18.3 kmh 29.72 in1006.4 mb 0.01 in0.3 mm 0.00 in0.0 mm 0.05 in1.3 mm
11:21 AM 55.6°F13.1°C 50.5°F10.3°C 83% 13.7 mph S22.0 kmh S 17.5 mph28.2 kmh 29.72 in1006.4 mb 0.01 in0.3 mm 0.00 in0.0 mm 0.05 in1.3 mm
11:23 AM 55.6°F13.1°C 50.2°F10.1°C 82% 6.0 mph S9.7 kmh S 7.6 mph12.2 kmh 29.72 in1006.4 mb 0.01 in0.3 mm 0.00 in0.0 mm 0.05 in1.3 mm
11:25 AM 55.6°F13.1°C 50.2°F10.1°C 82% 8.3 mph SSE13.4 kmh SSE 10.7 mph17.2 kmh 29.72 in1006.4 mb 0.01 in0.3 mm 0.00 in0.0 mm 0.05 in1.3 mm
11:27 AM 55.6°F13.1°C 49.8°F9.9°C 81% 10.7 mph S17.2 kmh S 13.7 mph22.0 kmh 29.72 in1006.4 mb 0.01 in0.3 mm 0.00 in0.0 mm 0.05 in1.3 mm
11:29 AM 55.4°F13.0°C 49.7°F9.8°C 81% 9.2 mph S14.8 kmh S 12.1 mph19.5 kmh 29.73 in1006.8 mb 0.01 in0.3 mm 0.00 in0.0 mm 0.05 in1.3 mm
11:31 AM 55.4°F13.0°C 49.7°F9.8°C 81% 15.9 mph SW25.6 kmh SW 19.0 mph30.6 kmh 29.72 in1006.4 mb 0.01 in0.3 mm 0.00 in0.0 mm 0.05 in1.3 mm
11:33 AM 55.4°F13.0°C 49.7°F9.8°C 81% 11.4 mph SW18.3 kmh SW 13.7 mph22.0 kmh 29.72 in1006.4 mb 0.01 in0.3 mm 0.00 in0.0 mm 0.05 in1.3 mm
11:35 AM 55.4°F13.0°C 49.3°F9.6°C 80% 3.1 mph S5.0 kmh S 4.5 mph7.2 kmh 29.72 in1006.4 mb 0.01 in0.3 mm 0.00 in0.0 mm 0.05 in1.3 mm
11:37 AM 55.6°F13.1°C 49.5°F9.7°C 80% 4.5 mph S7.2 kmh S 6.0 mph9.7 kmh 29.72 in1006.4 mb 0.01 in0.3 mm 0.00 in0.0 mm 0.05 in1.3 mm
11:39 AM 55.6°F13.1°C 49.5°F9.7°C 80% 4.5 mph S7.2 kmh S 6.0 mph9.7 kmh 29.73 in1006.8 mb 0.01 in0.3 mm 0.00 in0.0 mm 0.05 in1.3 mm
11:41 AM 55.6°F13.1°C 49.5°F9.7°C 80% 3.8 mph S6.1 kmh S 5.4 mph8.7 kmh 29.72 in1006.4 mb 0.01 in0.3 mm 0.00 in0.0 mm 0.05 in1.3 mm
11:43 AM 55.6°F13.1°C 49.5°F9.7°C 80% 6.9 mph S11.1 kmh S 8.3 mph13.4 kmh 29.72 in1006.4 mb 0.01 in0.3 mm 0.00 in0.0 mm 0.05 in1.3 mm
11:45 AM 55.6°F13.1°C 49.5°F9.7°C 80% 7.6 mph S12.2 kmh S 9.2 mph14.8 kmh 29.72 in1006.4 mb 0.01 in0.3 mm 0.00 in0.0 mm 0.05 in1.3 mm
11:47 AM 55.4°F13.0°C 49.3°F9.6°C 80% 5.4 mph SE8.7 kmh SE 6.9 mph11.1 kmh 29.73 in1006.8 mb 0.01 in0.3 mm 0.00 in0.0 mm 0.05 in1.3 mm
11:49 AM 55.4°F13.0°C 49.3°F9.6°C 80% 3.8 mph S6.1 kmh S 5.4 mph8.7 kmh 29.73 in1006.8 mb 0.01 in0.3 mm 0.00 in0.0 mm 0.05 in1.3 mm
11:51 AM 55.4°F13.0°C 49.3°F9.6°C 80% 9.8 mph SE15.8 kmh SE 11.4 mph18.3 kmh 29.72 in1006.4 mb 0.01 in0.3 mm 0.00 in0.0 mm 0.05 in1.3 mm
11:53 AM 55.4°F13.0°C 49.3°F9.6°C 80% 6.0 mph S9.7 kmh S 9.2 mph14.8 kmh 29.72 in1006.4 mb 0.00 in0.0 mm 0.00 in0.0 mm 0.05 in1.3 mm
11:55 AM 55.4°F13.0°C 49.3°F9.6°C 80% 5.4 mph S8.7 kmh S 6.9 mph11.1 kmh 29.71 in1006.1 mb 0.00 in0.0 mm 0.00 in0.0 mm 0.05 in1.3 mm
11:57 AM 55.4°F13.0°C 49.3°F9.6°C 80% 5.4 mph SSE8.7 kmh SSE 6.0 mph9.7 kmh 29.71 in1006.1 mb 0.00 in0.0 mm 0.00 in0.0 mm 0.05 in1.3 mm
11:59 AM 55.4°F13.0°C 49.3°F9.6°C 80% 8.3 mph S13.4 kmh S 13.0 mph20.9 kmh 29.71 in1006.1 mb 0.00 in0.0 mm 0.00 in0.0 mm 0.05 in1.3 mm
12:01 PM 55.4°F13.0°C 49.3°F9.6°C 80% 9.2 mph SSE14.8 kmh SSE 10.7 mph17.2 kmh 29.71 in1006.1 mb 0.00 in0.0 mm 0.00 in0.0 mm 0.05 in1.3 mm
12:03 PM 55.6°F13.1°C 49.8°F9.9°C 81% 6.9 mph S11.1 kmh S 8.3 mph13.4 kmh 29.70 in1005.8 mb 0.00 in0.0 mm 0.00 in0.0 mm 0.05 in1.3 mm
12:05 PM 55.8°F13.2°C 50.0°F10.0°C 81% 7.6 mph S12.2 kmh S 9.8 mph15.8 kmh 29.71 in1006.1 mb 0.00 in0.0 mm 0.00 in0.0 mm 0.05 in1.3 mm
12:07 PM 56.1°F13.4°C 50.4°F10.2°C 81% 6.0 mph SSE9.7 kmh SSE 7.6 mph12.2 kmh 29.71 in1006.1 mb 0.00 in0.0 mm 0.00 in0.0 mm 0.05 in1.3 mm
12:09 PM 56.3°F13.5°C 50.5°F10.3°C 81% 8.3 mph SW13.4 kmh SW 10.7 mph17.2 kmh 29.71 in1006.1 mb 0.00 in0.0 mm 0.00 in0.0 mm 0.05 in1.3 mm
12:11 PM 56.5°F13.6°C 50.7°F10.4°C 81% 9.2 mph S14.8 kmh S 13.0 mph20.9 kmh 29.70 in1005.8 mb 0.00 in0.0 mm 0.00 in0.0 mm 0.05 in1.3 mm
12:13 PM 56.5°F13.6°C 50.4°F10.2°C 80% 8.3 mph S13.4 kmh S 11.4 mph18.3 kmh 29.71 in1006.1 mb 0.00 in0.0 mm 0.00 in0.0 mm 0.05 in1.3 mm
12:15 PM 56.8°F13.8°C 50.7°F10.4°C 80% 11.4 mph SW18.3 kmh SW 16.8 mph27.0 kmh 29.69 in1005.4 mb 0.00 in0.0 mm 0.00 in0.0 mm 0.05 in1.3 mm
12:17 PM 56.8°F13.8°C 50.7°F10.4°C 80% 8.3 mph S13.4 kmh S 11.4 mph18.3 kmh 29.70 in1005.8 mb 0.00 in0.0 mm 0.00 in0.0 mm 0.05 in1.3 mm
12:19 PM 56.8°F13.8°C 50.4°F10.2°C 79% 12.1 mph SSW19.5 kmh SSW 15.2 mph24.5 kmh 29.70 in1005.8 mb 0.00 in0.0 mm 0.00 in0.0 mm 0.05 in1.3 mm
12:21 PM 57.0°F13.9°C 50.6°F10.3°C 79% 11.4 mph S18.3 kmh S 13.0 mph20.9 kmh 29.70 in1005.8 mb 0.00 in0.0 mm 0.00 in0.0 mm 0.05 in1.3 mm
12:23 PM 57.0°F13.9°C 50.2°F10.1°C 78% 10.7 mph SW17.2 kmh SW 16.8 mph27.0 kmh 29.70 in1005.8 mb 0.00 in0.0 mm 0.00 in0.0 mm 0.05 in1.3 mm
12:25 PM 57.0°F13.9°C 50.2°F10.1°C 78% 8.3 mph S13.4 kmh S 9.8 mph15.8 kmh 29.70 in1005.8 mb 0.00 in0.0 mm 0.00 in0.0 mm 0.05 in1.3 mm
12:27 PM 57.2°F14.0°C 50.4°F10.2°C 78% 10.7 mph SW17.2 kmh SW 12.1 mph19.5 kmh 29.71 in1006.1 mb 0.00 in0.0 mm 0.00 in0.0 mm 0.05 in1.3 mm
12:29 PM 57.2°F14.0°C 50.4°F10.2°C 78% 8.3 mph SE13.4 kmh SE 9.8 mph15.8 kmh 29.71 in1006.1 mb 0.00 in0.0 mm 0.00 in0.0 mm 0.05 in1.3 mm
12:31 PM 57.2°F14.0°C 50.1°F10.1°C 77% 9.2 mph S14.8 kmh S 12.1 mph19.5 kmh 29.70 in1005.8 mb 0.00 in0.0 mm 0.00 in0.0 mm 0.05 in1.3 mm
12:33 PM 57.2°F14.0°C 50.1°F10.1°C 77% 10.7 mph SE17.2 kmh SE 15.2 mph24.5 kmh 29.70 in1005.8 mb 0.00 in0.0 mm 0.00 in0.0 mm 0.05 in1.3 mm
12:41 PM 56.7°F13.7°C 49.9°F9.9°C 78% 9.8 mph S15.8 kmh S 12.1 mph19.5 kmh 29.70 in1005.8 mb 0.00 in0.0 mm 0.00 in0.0 mm 0.05 in1.3 mm
12:43 PM 56.5°F13.6°C 49.7°F9.8°C 78% 13.0 mph SE20.9 kmh SE 14.5 mph23.3 kmh 29.70 in1005.8 mb 0.00 in0.0 mm 0.00 in0.0 mm 0.05 in1.3 mm
12:45 PM 56.3°F13.5°C 49.5°F9.7°C 78% 6.0 mph S9.7 kmh S 8.3 mph13.4 kmh 29.70 in1005.8 mb 0.00 in0.0 mm 0.00 in0.0 mm 0.05 in1.3 mm
12:48 PM 56.1°F13.4°C 49.4°F9.7°C 78% 10.7 mph S17.2 kmh S 12.1 mph19.5 kmh 29.69 in1005.4 mb 0.00 in0.0 mm 0.00 in0.0 mm 0.05 in1.3 mm
12:49 PM 55.9°F13.3°C 49.2°F9.6°C 78% 10.7 mph S17.2 kmh S 14.5 mph23.3 kmh 29.70 in1005.8 mb 0.00 in0.0 mm 0.00 in0.0 mm 0.05 in1.3 mm
12:51 PM 55.8°F13.2°C 49.0°F9.4°C 78% 11.4 mph S18.3 kmh S 14.5 mph23.3 kmh 29.70 in1005.8 mb 0.00 in0.0 mm 0.00 in0.0 mm 0.05 in1.3 mm
12:55 PM 55.6°F13.1°C 49.2°F9.6°C 79% 4.5 mph SE7.2 kmh SE 6.0 mph9.7 kmh 29.69 in1005.4 mb 0.00 in0.0 mm 0.00 in0.0 mm 0.05 in1.3 mm
12:57 PM 55.6°F13.1°C 49.2°F9.6°C 79% 7.6 mph S12.2 kmh S 9.8 mph15.8 kmh 29.69 in1005.4 mb 0.00 in0.0 mm 0.00 in0.0 mm 0.05 in1.3 mm
12:59 PM 55.6°F13.1°C 49.2°F9.6°C 79% 11.4 mph SSW18.3 kmh SSW 13.7 mph22.0 kmh 29.70 in1005.8 mb 0.00 in0.0 mm 0.00 in0.0 mm 0.05 in1.3 mm
01:01 PM 55.4°F13.0°C 49.0°F9.4°C 79% 7.6 mph SE12.2 kmh SE 13.7 mph22.0 kmh 29.69 in1005.4 mb 0.00 in0.0 mm 0.00 in0.0 mm 0.05 in1.3 mm
01:03 PM 55.4°F13.0°C 49.0°F9.4°C 79% 8.3 mph S13.4 kmh S 11.4 mph18.3 kmh 29.69 in1005.4 mb 0.00 in0.0 mm 0.00 in0.0 mm 0.05 in1.3 mm
01:05 PM 55.4°F13.0°C 49.0°F9.4°C 79% 7.6 mph S12.2 kmh S 9.2 mph14.8 kmh 29.70 in1005.8 mb 0.00 in0.0 mm 0.00 in0.0 mm 0.05 in1.3 mm
01:07 PM 55.4°F13.0°C 49.0°F9.4°C 79% 9.2 mph S14.8 kmh S 10.7 mph17.2 kmh 29.69 in1005.4 mb 0.00 in0.0 mm 0.00 in0.0 mm 0.05 in1.3 mm
01:09 PM 55.4°F13.0°C 49.0°F9.4°C 79% 6.0 mph S9.7 kmh S 8.3 mph13.4 kmh 29.70 in1005.8 mb 0.00 in0.0 mm 0.00 in0.0 mm 0.05 in1.3 mm
01:11 PM 55.2°F12.9°C 48.8°F9.3°C 79% 7.6 mph SE12.2 kmh SE 9.2 mph14.8 kmh 29.69 in1005.4 mb 0.00 in0.0 mm 0.00 in0.0 mm 0.05 in1.3 mm
01:13 PM 55.2°F12.9°C 48.8°F9.3°C 79% 5.4 mph S8.7 kmh S 6.0 mph9.7 kmh 29.69 in1005.4 mb 0.00 in0.0 mm 0.00 in0.0 mm 0.05 in1.3 mm
01:15 PM 55.2°F12.9°C 48.8°F9.3°C 79% 6.9 mph S11.1 kmh S 9.2 mph14.8 kmh 29.69 in1005.4 mb 0.00 in0.0 mm 0.00 in0.0 mm 0.05 in1.3 mm
01:17 PM 55.2°F12.9°C 48.8°F9.3°C 79% 8.3 mph S13.4 kmh S 10.7 mph17.2 kmh 29.69 in1005.4 mb 0.00 in0.0 mm 0.00 in0.0 mm 0.05 in1.3 mm
01:19 PM 55.2°F12.9°C 49.2°F9.6°C 80% 7.6 mph S12.2 kmh S 9.8 mph15.8 kmh 29.69 in1005.4 mb 0.00 in0.0 mm 0.00 in0.0 mm 0.05 in1.3 mm
01:21 PM 55.2°F12.9°C 49.2°F9.6°C 80% 7.6 mph S12.2 kmh S 9.2 mph14.8 kmh 29.69 in1005.4 mb 0.00 in0.0 mm 0.00 in0.0 mm 0.05 in1.3 mm
01:23 PM 55.4°F13.0°C 49.3°F9.6°C 80% 8.3 mph SSW13.4 kmh SSW 9.8 mph15.8 kmh 29.69 in1005.4 mb 0.00 in0.0 mm 0.00 in0.0 mm 0.05 in1.3 mm
01:25 PM 55.4°F13.0°C 49.3°F9.6°C 80% 6.0 mph S9.7 kmh S 6.9 mph11.1 kmh 29.69 in1005.4 mb 0.00 in0.0 mm 0.00 in0.0 mm 0.05 in1.3 mm
01:27 PM 55.4°F13.0°C 49.3°F9.6°C 80% 10.7 mph SSW17.2 kmh SSW 14.5 mph23.3 kmh 29.69 in1005.4 mb 0.00 in0.0 mm 0.00 in0.0 mm 0.05 in1.3 mm
01:29 PM 55.4°F13.0°C 49.3°F9.6°C 80% 6.0 mph S9.7 kmh S 9.2 mph14.8 kmh 29.69 in1005.4 mb 0.00 in0.0 mm 0.00 in0.0 mm 0.05 in1.3 mm
01:31 PM 55.6°F13.1°C 49.2°F9.6°C 79% 3.8 mph S6.1 kmh S 5.4 mph8.7 kmh 29.68 in1005.1 mb 0.00 in0.0 mm 0.00 in0.0 mm 0.05 in1.3 mm
01:33 PM 55.6°F13.1°C 49.2°F9.6°C 79% 6.9 mph SE11.1 kmh SE 9.2 mph14.8 kmh 29.68 in1005.1 mb 0.00 in0.0 mm 0.00 in0.0 mm 0.05 in1.3 mm
01:35 PM 55.6°F13.1°C 49.5°F9.7°C 80% 5.4 mph SE8.7 kmh SE 7.6 mph12.2 kmh 29.69 in1005.4 mb 0.00 in0.0 mm 0.00 in0.0 mm 0.05 in1.3 mm
01:37 PM 55.6°F13.1°C 49.5°F9.7°C 80% 5.4 mph S8.7 kmh S 6.9 mph11.1 kmh 29.68 in1005.1 mb 0.00 in0.0 mm 0.00 in0.0 mm 0.05 in1.3 mm
01:39 PM 55.6°F13.1°C 49.5°F9.7°C 80% 4.5 mph S7.2 kmh S 5.4 mph8.7 kmh 29.68 in1005.1 mb 0.00 in0.0 mm 0.00 in0.0 mm 0.05 in1.3 mm
01:41 PM 55.6°F13.1°C 49.5°F9.7°C 80% 9.8 mph SW15.8 kmh SW 12.1 mph19.5 kmh 29.69 in1005.4 mb 0.00 in0.0 mm 0.00 in0.0 mm 0.05 in1.3 mm
01:43 PM 55.8°F13.2°C 49.7°F9.8°C 80% 6.0 mph S9.7 kmh S 7.6 mph12.2 kmh 29.69 in1005.4 mb 0.00 in0.0 mm 0.00 in0.0 mm 0.05 in1.3 mm
01:45 PM 55.8°F13.2°C 49.7°F9.8°C 80% 10.7 mph S17.2 kmh S 12.1 mph19.5 kmh 29.68 in1005.1 mb 0.00 in0.0 mm 0.00 in0.0 mm 0.05 in1.3 mm
01:47 PM 55.8°F13.2°C 49.7°F9.8°C 80% 8.3 mph SE13.4 kmh SE 10.7 mph17.2 kmh 29.67 in1004.7 mb 0.00 in0.0 mm 0.00 in0.0 mm 0.05 in1.3 mm
01:49 PM 55.8°F13.2°C 49.7°F9.8°C 80% 6.0 mph SSW9.7 kmh SSW 6.9 mph11.1 kmh 29.67 in1004.7 mb 0.00 in0.0 mm 0.00 in0.0 mm 0.05 in1.3 mm
01:51 PM 55.8°F13.2°C 49.7°F9.8°C 80% 7.6 mph SE12.2 kmh SE 9.8 mph15.8 kmh 29.67 in1004.7 mb 0.00 in0.0 mm 0.00 in0.0 mm 0.05 in1.3 mm
01:53 PM 55.8°F13.2°C 49.7°F9.8°C 80% 6.9 mph S11.1 kmh S 9.8 mph15.8 kmh 29.67 in1004.7 mb 0.00 in0.0 mm 0.00 in0.0 mm 0.05 in1.3 mm
01:55 PM 55.8°F13.2°C 49.7°F9.8°C 80% 10.7 mph S17.2 kmh S 11.4 mph18.3 kmh 29.67 in1004.7 mb 0.00 in0.0 mm 0.00 in0.0 mm 0.05 in1.3 mm
01:57 PM 55.8°F13.2°C 49.7°F9.8°C 80% 9.8 mph SE15.8 kmh SE 13.7 mph22.0 kmh 29.67 in1004.7 mb 0.00 in0.0 mm 0.00 in0.0 mm 0.05 in1.3 mm
01:59 PM 55.9°F13.3°C 49.9°F9.9°C 80% 6.9 mph SE11.1 kmh SE 9.8 mph15.8 kmh 29.67 in1004.7 mb 0.00 in0.0 mm 0.00 in0.0 mm 0.05 in1.3 mm
02:01 PM 55.9°F13.3°C 49.9°F9.9°C 80% 6.9 mph SE11.1 kmh SE 9.8 mph15.8 kmh 29.66 in1004.4 mb 0.00 in0.0 mm 0.00 in0.0 mm 0.05 in1.3 mm
02:03 PM 55.9°F13.3°C 49.9°F9.9°C 80% 6.9 mph SE11.1 kmh SE 9.8 mph15.8 kmh 29.66 in1004.4 mb 0.00 in0.0 mm 0.00 in0.0 mm 0.05 in1.3 mm
02:05 PM 55.9°F13.3°C 49.9°F9.9°C 80% 6.9 mph SE11.1 kmh SE 9.8 mph15.8 kmh 29.66 in1004.4 mb 0.00 in0.0 mm 0.00 in0.0 mm 0.05 in1.3 mm
02:07 PM 55.9°F13.3°C 49.5°F9.7°C 79% 10.7 mph S17.2 kmh S 14.5 mph23.3 kmh 29.66 in1004.4 mb 0.00 in0.0 mm 0.00 in0.0 mm 0.05 in1.3 mm
02:09 PM 55.9°F13.3°C 49.5°F9.7°C 79% 14.5 mph SSE23.3 kmh SSE 17.5 mph28.2 kmh 29.67 in1004.7 mb 0.00 in0.0 mm 0.00 in0.0 mm 0.05 in1.3 mm
02:11 PM 55.8°F13.2°C 49.4°F9.7°C 79% 17.5 mph S28.2 kmh S 22.2 mph35.7 kmh 29.66 in1004.4 mb 0.00 in0.0 mm 0.00 in0.0 mm 0.05 in1.3 mm
02:13 PM 55.8°F13.2°C 49.4°F9.7°C 79% 10.7 mph SE17.2 kmh SE 13.7 mph22.0 kmh 29.66 in1004.4 mb 0.00 in0.0 mm 0.00 in0.0 mm 0.05 in1.3 mm
02:15 PM 55.9°F13.3°C 49.5°F9.7°C 79% 6.0 mph S9.7 kmh S 6.9 mph11.1 kmh 29.66 in1004.4 mb 0.00 in0.0 mm 0.00 in0.0 mm 0.05 in1.3 mm
02:17 PM 55.9°F13.3°C 49.5°F9.7°C 79% 7.6 mph S12.2 kmh S 10.7 mph17.2 kmh 29.66 in1004.4 mb 0.00 in0.0 mm 0.00 in0.0 mm 0.05 in1.3 mm
02:19 PM 55.8°F13.2°C 49.4°F9.7°C 79% 6.9 mph S11.1 kmh S 9.2 mph14.8 kmh 29.67 in1004.7 mb 0.00 in0.0 mm 0.00 in0.0 mm 0.05 in1.3 mm
02:21 PM 55.8°F13.2°C 49.4°F9.7°C 79% 8.3 mph S13.4 kmh S 9.8 mph15.8 kmh 29.66 in1004.4 mb 0.00 in0.0 mm 0.00 in0.0 mm 0.05 in1.3 mm
02:23 PM 55.6°F13.1°C 49.2°F9.6°C 79% 8.3 mph S13.4 kmh S 11.4 mph18.3 kmh 29.66 in1004.4 mb 0.00 in0.0 mm 0.00 in0.0 mm 0.05 in1.3 mm
02:25 PM 55.6°F13.1°C 49.2°F9.6°C 79% 14.5 mph S23.3 kmh S 19.0 mph30.6 kmh 29.66 in1004.4 mb 0.00 in0.0 mm 0.00 in0.0 mm 0.05 in1.3 mm
02:27 PM 55.6°F13.1°C 49.2°F9.6°C 79% 13.7 mph S22.0 kmh S 16.8 mph27.0 kmh 29.66 in1004.4 mb 0.00 in0.0 mm 0.00 in0.0 mm 0.05 in1.3 mm
02:29 PM 55.6°F13.1°C 49.2°F9.6°C 79% 7.6 mph SSW12.2 kmh SSW 12.1 mph19.5 kmh 29.66 in1004.4 mb 0.00 in0.0 mm 0.00 in0.0 mm 0.05 in1.3 mm
02:31 PM 55.4°F13.0°C 49.0°F9.4°C 79% 6.0 mph S9.7 kmh S 7.6 mph12.2 kmh 29.66 in1004.4 mb 0.00 in0.0 mm 0.00 in0.0 mm 0.05 in1.3 mm
02:34 PM 55.4°F13.0°C 49.0°F9.4°C 79% 15.2 mph SW24.5 kmh SW 17.5 mph28.2 kmh 29.66 in1004.4 mb 0.00 in0.0 mm 0.00 in0.0 mm 0.05 in1.3 mm
02:35 PM 55.4°F13.0°C 49.0°F9.4°C 79% 6.9 mph S11.1 kmh S 8.3 mph13.4 kmh 29.66 in1004.4 mb 0.00 in0.0 mm 0.00 in0.0 mm 0.05 in1.3 mm
02:38 PM 55.6°F13.1°C 49.5°F9.7°C 80% 9.2 mph S14.8 kmh S 13.0 mph20.9 kmh 29.65 in1004.1 mb 0.00 in0.0 mm 0.00 in0.0 mm 0.05 in1.3 mm
02:39 PM 55.6°F13.1°C 49.5°F9.7°C 80% 10.7 mph S17.2 kmh S 15.9 mph25.6 kmh 29.66 in1004.4 mb 0.00 in0.0 mm 0.00 in0.0 mm 0.05 in1.3 mm
02:42 PM 55.6°F13.1°C 49.5°F9.7°C 80% 9.2 mph SW14.8 kmh SW 13.0 mph20.9 kmh 29.66 in1004.4 mb 0.00 in0.0 mm 0.00 in0.0 mm 0.05 in1.3 mm
02:44 PM 55.8°F13.2°C 49.7°F9.8°C 80% 8.3 mph S13.4 kmh S 10.7 mph17.2 kmh 29.66 in1004.4 mb 0.00 in0.0 mm 0.00 in0.0 mm 0.05 in1.3 mm
02:46 PM 55.8°F13.2°C 49.7°F9.8°C 80% 13.7 mph S22.0 kmh S 15.9 mph25.6 kmh 29.66 in1004.4 mb 0.00 in0.0 mm 0.00 in0.0 mm 0.05 in1.3 mm
02:48 PM 55.9°F13.3°C 49.9°F9.9°C 80% 9.8 mph S15.8 kmh S 13.7 mph22.0 kmh 29.66 in1004.4 mb 0.00 in0.0 mm 0.00 in0.0 mm 0.05 in1.3 mm
02:50 PM 55.9°F13.3°C 49.9°F9.9°C 80% 7.6 mph SE12.2 kmh SE 9.2 mph14.8 kmh 29.66 in1004.4 mb 0.00 in0.0 mm 0.00 in0.0 mm 0.05 in1.3 mm
02:52 PM 55.8°F13.2°C 49.4°F9.7°C 79% 14.5 mph SSE23.3 kmh SSE 17.5 mph28.2 kmh 29.65 in1004.1 mb 0.00 in0.0 mm 0.00 in0.0 mm 0.05 in1.3 mm
02:54 PM 55.8°F13.2°C 49.0°F9.4°C 78% 15.9 mph S25.6 kmh S 21.3 mph34.3 kmh 29.65 in1004.1 mb 0.00 in0.0 mm 0.00 in0.0 mm 0.05 in1.3 mm
02:56 PM 55.6°F13.1°C 48.8°F9.3°C 78% 12.1 mph S19.5 kmh S 15.9 mph25.6 kmh 29.65 in1004.1 mb 0.00 in0.0 mm 0.00 in0.0 mm 0.05 in1.3 mm
02:58 PM 55.6°F13.1°C 48.5°F9.2°C 77% 10.7 mph S17.2 kmh S 13.0 mph20.9 kmh 29.65 in1004.1 mb 0.00 in0.0 mm 0.00 in0.0 mm 0.05 in1.3 mm
03:00 PM 55.4°F13.0°C 48.3°F9.1°C 77% 13.7 mph S22.0 kmh S 18.3 mph29.5 kmh 29.65 in1004.1 mb 0.00 in0.0 mm 0.00 in0.0 mm 0.05 in1.3 mm
03:02 PM 55.4°F13.0°C 48.3°F9.1°C 77% 11.4 mph S18.3 kmh S 13.7 mph22.0 kmh 29.65 in1004.1 mb 0.00 in0.0 mm 0.00 in0.0 mm 0.05 in1.3 mm
03:04 PM 55.4°F13.0°C 48.3°F9.1°C 77% 6.9 mph SSW11.1 kmh SSW 7.6 mph12.2 kmh 29.65 in1004.1 mb 0.00 in0.0 mm 0.00 in0.0 mm 0.05 in1.3 mm
03:06 PM 55.2°F12.9°C 48.5°F9.2°C 78% 10.7 mph S17.2 kmh S 13.0 mph20.9 kmh 29.65 in1004.1 mb 0.00 in0.0 mm 0.00 in0.0 mm 0.05 in1.3 mm
03:08 PM 55.2°F12.9°C 48.5°F9.2°C 78% 13.7 mph S22.0 kmh S 19.0 mph30.6 kmh 29.66 in1004.4 mb 0.00 in0.0 mm 0.00 in0.0 mm 0.05 in1.3 mm
03:11 PM 55.0°F12.8°C 48.3°F9.1°C 78% 9.8 mph S15.8 kmh S 13.0 mph20.9 kmh 29.66 in1004.4 mb 0.00 in0.0 mm 0.00 in0.0 mm 0.05 in1.3 mm
03:12 PM 55.0°F12.8°C 48.3°F9.1°C 78% 11.4 mph S18.3 kmh S 13.7 mph22.0 kmh 29.66 in1004.4 mb 0.00 in0.0 mm 0.00 in0.0 mm 0.05 in1.3 mm
03:14 PM 55.0°F12.8°C 48.3°F9.1°C 78% 8.3 mph SW13.4 kmh SW 11.4 mph18.3 kmh 29.66 in1004.4 mb 0.00 in0.0 mm 0.00 in0.0 mm 0.05 in1.3 mm
03:16 PM 55.0°F12.8°C 48.3°F9.1°C 78% 7.6 mph S12.2 kmh S 9.2 mph14.8 kmh 29.65 in1004.1 mb 0.00 in0.0 mm 0.00 in0.0 mm 0.05 in1.3 mm
03:18 PM 54.9°F12.7°C 48.1°F8.9°C 78% 10.7 mph S17.2 kmh S 15.2 mph24.5 kmh 29.66 in1004.4 mb 0.00 in0.0 mm 0.00 in0.0 mm 0.05 in1.3 mm
03:20 PM 54.9°F12.7°C 48.1°F8.9°C 78% 9.8 mph S15.8 kmh S 12.1 mph19.5 kmh 29.66 in1004.4 mb 0.00 in0.0 mm 0.00 in0.0 mm 0.05 in1.3 mm
03:22 PM 54.9°F12.7°C 48.1°F8.9°C 78% 9.8 mph S15.8 kmh S 13.7 mph22.0 kmh 29.66 in1004.4 mb 0.00 in0.0 mm 0.00 in0.0 mm 0.05 in1.3 mm
03:26 PM 55.0°F12.8°C 48.7°F9.3°C 79% 9.8 mph SSW15.8 kmh SSW 13.0 mph20.9 kmh 29.66 in1004.4 mb 0.00 in0.0 mm 0.00 in0.0 mm 0.05 in1.3 mm
03:28 PM 55.0°F12.8°C 48.7°F9.3°C 79% 10.7 mph S17.2 kmh S 13.0 mph20.9 kmh 29.66 in1004.4 mb 0.00 in0.0 mm 0.00 in0.0 mm 0.05 in1.3 mm
03:30 PM 55.0°F12.8°C 48.7°F9.3°C 79% 5.4 mph S8.7 kmh S 6.9 mph11.1 kmh 29.66 in1004.4 mb 0.00 in0.0 mm 0.00 in0.0 mm 0.05 in1.3 mm
03:32 PM 55.0°F12.8°C 48.7°F9.3°C 79% 12.1 mph S19.5 kmh S 16.8 mph27.0 kmh 29.66 in1004.4 mb 0.00 in0.0 mm 0.00 in0.0 mm 0.05 in1.3 mm
03:34 PM 55.2°F12.9°C 48.8°F9.3°C 79% 9.2 mph S14.8 kmh S 11.4 mph18.3 kmh 29.66 in1004.4 mb 0.00 in0.0 mm 0.00 in0.0 mm 0.05 in1.3 mm
03:36 PM 55.2°F12.9°C 48.8°F9.3°C 79% 10.7 mph S17.2 kmh S 13.7 mph22.0 kmh 29.66 in1004.4 mb 0.00 in0.0 mm 0.00 in0.0 mm 0.05 in1.3 mm
03:38 PM 55.2°F12.9°C 48.5°F9.2°C 78% 11.4 mph S18.3 kmh S 13.7 mph22.0 kmh 29.66 in1004.4 mb 0.00 in0.0 mm 0.00 in0.0 mm 0.05 in1.3 mm
03:40 PM 55.2°F12.9°C 48.5°F9.2°C 78% 11.4 mph S18.3 kmh S 14.5 mph23.3 kmh 29.66 in1004.4 mb 0.00 in0.0 mm 0.00 in0.0 mm 0.05 in1.3 mm
03:42 PM 55.2°F12.9°C 48.5°F9.2°C 78% 14.5 mph S23.3 kmh S 16.8 mph27.0 kmh 29.66 in1004.4 mb 0.00 in0.0 mm 0.00 in0.0 mm 0.05 in1.3 mm
03:44 PM 55.0°F12.8°C 48.3°F9.1°C 78% 11.4 mph S18.3 kmh S 14.5 mph23.3 kmh 29.66 in1004.4 mb 0.00 in0.0 mm 0.00 in0.0 mm 0.05 in1.3 mm
03:46 PM 55.0°F12.8°C 48.3°F9.1°C 78% 10.7 mph S17.2 kmh S 13.0 mph20.9 kmh 29.65 in1004.1 mb 0.00 in0.0 mm 0.00 in0.0 mm 0.05 in1.3 mm
03:50 PM 54.9°F12.7°C 48.1°F8.9°C 78% 9.2 mph S14.8 kmh S 14.5 mph23.3 kmh 29.66 in1004.4 mb 0.00 in0.0 mm 0.00 in0.0 mm 0.05 in1.3 mm
03:52 PM 54.9°F12.7°C 48.1°F8.9°C 78% 9.2 mph S14.8 kmh S 14.5 mph23.3 kmh 29.65 in1004.1 mb 0.00 in0.0 mm 0.00 in0.0 mm 0.05 in1.3 mm
03:54 PM 54.7°F12.6°C 48.0°F8.9°C 78% 8.3 mph S13.4 kmh S 13.0 mph20.9 kmh 29.65 in1004.1 mb 0.00 in0.0 mm 0.00 in0.0 mm 0.05 in1.3 mm
03:56 PM 54.7°F12.6°C 48.0°F8.9°C 78% 18.3 mph S29.5 kmh S 28.9 mph46.5 kmh 29.64 in1003.7 mb 0.00 in0.0 mm 0.00 in0.0 mm 0.05 in1.3 mm
03:58 PM 54.7°F12.6°C 48.0°F8.9°C 78% 15.9 mph S25.6 kmh S 19.7 mph31.7 kmh 29.64 in1003.7 mb 0.00 in0.0 mm 0.00 in0.0 mm 0.05 in1.3 mm
04:01 PM 54.7°F12.6°C 48.0°F8.9°C 78% 13.7 mph S22.0 kmh S 17.5 mph28.2 kmh 29.64 in1003.7 mb 0.00 in0.0 mm 0.00 in0.0 mm 0.05 in1.3 mm
04:02 PM 54.7°F12.6°C 47.6°F8.7°C 77% 8.3 mph SE13.4 kmh SE 15.2 mph24.5 kmh 29.64 in1003.7 mb 0.00 in0.0 mm 0.00 in0.0 mm 0.05 in1.3 mm
04:04 PM 54.7°F12.6°C 47.6°F8.7°C 77% 15.2 mph S24.5 kmh S 18.3 mph29.5 kmh 29.65 in1004.1 mb 0.00 in0.0 mm 0.00 in0.0 mm 0.05 in1.3 mm
04:06 PM 54.7°F12.6°C 47.6°F8.7°C 77% 11.4 mph SW18.3 kmh SW 14.5 mph23.3 kmh 29.64 in1003.7 mb 0.00 in0.0 mm 0.00 in0.0 mm 0.05 in1.3 mm
04:08 PM 54.7°F12.6°C 47.6°F8.7°C 77% 9.2 mph S14.8 kmh S 14.5 mph23.3 kmh 29.64 in1003.7 mb 0.00 in0.0 mm 0.00 in0.0 mm 0.05 in1.3 mm
04:11 PM 54.7°F12.6°C 47.3°F8.5°C 76% 15.9 mph S25.6 kmh S 19.0 mph30.6 kmh 29.65 in1004.1 mb 0.00 in0.0 mm 0.00 in0.0 mm 0.05 in1.3 mm
04:12 PM 54.7°F12.6°C 47.3°F8.5°C 76% 8.3 mph SSE13.4 kmh SSE 10.7 mph17.2 kmh 29.65 in1004.1 mb 0.00 in0.0 mm 0.00 in0.0 mm 0.05 in1.3 mm
04:15 PM 54.7°F12.6°C 47.3°F8.5°C 76% 14.5 mph S23.3 kmh S 19.7 mph31.7 kmh 29.65 in1004.1 mb 0.00 in0.0 mm 0.00 in0.0 mm 0.05 in1.3 mm
04:16 PM 54.7°F12.6°C 47.3°F8.5°C 76% 15.2 mph S24.5 kmh S 19.7 mph31.7 kmh 29.65 in1004.1 mb 0.00 in0.0 mm 0.00 in0.0 mm 0.05 in1.3 mm
04:18 PM 54.7°F12.6°C 47.3°F8.5°C 76% 13.7 mph S22.0 kmh S 18.3 mph29.5 kmh 29.66 in1004.4 mb 0.00 in0.0 mm 0.00 in0.0 mm 0.05 in1.3 mm
04:20 PM 54.9°F12.7°C 47.4°F8.6°C 76% 13.7 mph SE22.0 kmh SE 17.5 mph28.2 kmh 29.65 in1004.1 mb 0.00 in0.0 mm 0.00 in0.0 mm 0.05 in1.3 mm
04:22 PM 54.9°F12.7°C 47.4°F8.6°C 76% 15.9 mph S25.6 kmh S 18.3 mph29.5 kmh 29.64 in1003.7 mb 0.00 in0.0 mm 0.00 in0.0 mm 0.05 in1.3 mm
04:24 PM 54.9°F12.7°C 47.4°F8.6°C 76% 8.3 mph SE13.4 kmh SE 10.7 mph17.2 kmh 29.64 in1003.7 mb 0.00 in0.0 mm 0.00 in0.0 mm 0.05 in1.3 mm
04:26 PM 54.9°F12.7°C 47.1°F8.4°C 75% 9.2 mph S14.8 kmh S 11.4 mph18.3 kmh 29.64 in1003.7 mb 0.00 in0.0 mm 0.00 in0.0 mm 0.05 in1.3 mm
04:28 PM 54.9°F12.7°C 47.1°F8.4°C 75% 15.2 mph SE24.5 kmh SE 20.6 mph33.2 kmh 29.65 in1004.1 mb 0.00 in0.0 mm 0.00 in0.0 mm 0.05 in1.3 mm
04:30 PM 54.9°F12.7°C 47.1°F8.4°C 75% 13.7 mph S22.0 kmh S 17.5 mph28.2 kmh 29.65 in1004.1 mb 0.00 in0.0 mm 0.00 in0.0 mm 0.05 in1.3 mm
04:32 PM 54.9°F12.7°C 47.1°F8.4°C 75% 9.8 mph S15.8 kmh S 11.4 mph18.3 kmh 29.65 in1004.1 mb 0.00 in0.0 mm 0.00 in0.0 mm 0.05 in1.3 mm
04:34 PM 54.7°F12.6°C 46.9°F8.3°C 75% 12.1 mph SSE19.5 kmh SSE 14.5 mph23.3 kmh 29.64 in1003.7 mb 0.00 in0.0 mm 0.00 in0.0 mm 0.05 in1.3 mm
04:36 PM 54.7°F12.6°C 46.9°F8.3°C 75% 11.4 mph S18.3 kmh S 14.5 mph23.3 kmh 29.63 in1003.4 mb 0.00 in0.0 mm 0.00 in0.0 mm 0.05 in1.3 mm
04:39 PM 54.7°F12.6°C 46.9°F8.3°C 75% 13.0 mph SE20.9 kmh SE 15.2 mph24.5 kmh 29.64 in1003.7 mb 0.00 in0.0 mm 0.00 in0.0 mm 0.05 in1.3 mm
04:40 PM 54.9°F12.7°C 47.1°F8.4°C 75% 9.8 mph S15.8 kmh S 12.1 mph19.5 kmh 29.63 in1003.4 mb 0.00 in0.0 mm 0.00 in0.0 mm 0.05 in1.3 mm
04:42 PM 54.9°F12.7°C 47.1°F8.4°C 75% 14.5 mph S23.3 kmh S 18.3 mph29.5 kmh 29.63 in1003.4 mb 0.00 in0.0 mm 0.00 in0.0 mm 0.05 in1.3 mm
04:44 PM 54.9°F12.7°C 47.1°F8.4°C 75% 10.7 mph S17.2 kmh S 15.2 mph24.5 kmh 29.63 in1003.4 mb 0.00 in0.0 mm 0.00 in0.0 mm 0.05 in1.3 mm
04:46 PM 54.9°F12.7°C 47.1°F8.4°C 75% 13.0 mph E20.9 kmh E 16.8 mph27.0 kmh 29.64 in1003.7 mb 0.00 in0.0 mm 0.00 in0.0 mm 0.05 in1.3 mm
04:48 PM 54.7°F12.6°C 46.6°F8.1°C 74% 10.7 mph S17.2 kmh S 17.5 mph28.2 kmh 29.64 in1003.7 mb 0.00 in0.0 mm 0.00 in0.0 mm 0.05 in1.3 mm
04:50 PM 54.7°F12.6°C 46.6°F8.1°C 74% 8.3 mph SW13.4 kmh SW 12.1 mph19.5 kmh 29.64 in1003.7 mb 0.00 in0.0 mm 0.00 in0.0 mm 0.05 in1.3 mm
04:52 PM 54.7°F12.6°C 46.6°F8.1°C 74% 6.9 mph SSW11.1 kmh SSW 9.2 mph14.8 kmh 29.64 in1003.7 mb 0.00 in0.0 mm 0.00 in0.0 mm 0.05 in1.3 mm
04:54 PM 54.7°F12.6°C 46.6°F8.1°C 74% 8.3 mph SW13.4 kmh SW 11.4 mph18.3 kmh 29.65 in1004.1 mb 0.00 in0.0 mm 0.00 in0.0 mm 0.05 in1.3 mm
04:56 PM 54.7°F12.6°C 46.6°F8.1°C 74% 12.1 mph S19.5 kmh S 19.7 mph31.7 kmh 29.64 in1003.7 mb 0.00 in0.0 mm 0.00 in0.0 mm 0.05 in1.3 mm
04:58 PM 54.7°F12.6°C 46.6°F8.1°C 74% 13.7 mph SE22.0 kmh SE 18.3 mph29.5 kmh 29.64 in1003.7 mb 0.00 in0.0 mm 0.00 in0.0 mm 0.05 in1.3 mm
05:00 PM 54.7°F12.6°C 46.6°F8.1°C 74% 11.4 mph S18.3 kmh S 13.7 mph22.0 kmh 29.64 in1003.7 mb 0.00 in0.0 mm 0.00 in0.0 mm 0.05 in1.3 mm
05:02 PM 54.7°F12.6°C 46.6°F8.1°C 74% 11.4 mph S18.3 kmh S 14.5 mph23.3 kmh 29.64 in1003.7 mb 0.00 in0.0 mm 0.00 in0.0 mm 0.05 in1.3 mm
05:04 PM 54.7°F12.6°C 46.6°F8.1°C 74% 7.6 mph SSE12.2 kmh SSE 9.8 mph15.8 kmh 29.64 in1003.7 mb 0.00 in0.0 mm 0.00 in0.0 mm 0.05 in1.3 mm
05:06 PM 54.7°F12.6°C 46.6°F8.1°C 74% 9.8 mph SE15.8 kmh SE 13.0 mph20.9 kmh 29.63 in1003.4 mb 0.00 in0.0 mm 0.00 in0.0 mm 0.05 in1.3 mm
05:08 PM 54.7°F12.6°C 46.6°F8.1°C 74% 10.7 mph S17.2 kmh S 13.0 mph20.9 kmh 29.64 in1003.7 mb 0.00 in0.0 mm 0.00 in0.0 mm 0.05 in1.3 mm
05:10 PM 54.7°F12.6°C 46.6°F8.1°C 74% 7.6 mph S12.2 kmh S 9.8 mph15.8 kmh 29.64 in1003.7 mb 0.00 in0.0 mm 0.00 in0.0 mm 0.05 in1.3 mm
05:12 PM 54.7°F12.6°C 46.6°F8.1°C 74% 13.0 mph SE20.9 kmh SE 16.8 mph27.0 kmh 29.64 in1003.7 mb 0.00 in0.0 mm 0.00 in0.0 mm 0.05 in1.3 mm
05:14 PM 54.5°F12.5°C 46.4°F8.0°C 74% 9.8 mph S15.8 kmh S 12.1 mph19.5 kmh 29.64 in1003.7 mb 0.00 in0.0 mm 0.00 in0.0 mm 0.05 in1.3 mm
05:16 PM 54.5°F12.5°C 46.4°F8.0°C 74% 9.8 mph S15.8 kmh S 13.0 mph20.9 kmh 29.64 in1003.7 mb 0.00 in0.0 mm 0.00 in0.0 mm 0.05 in1.3 mm
05:18 PM 54.5°F12.5°C 46.4°F8.0°C 74% 12.1 mph E19.5 kmh E 15.9 mph25.6 kmh 29.64 in1003.7 mb 0.00 in0.0 mm 0.00 in0.0 mm 0.05 in1.3 mm
05:20 PM 54.5°F12.5°C 46.4°F8.0°C 74% 9.2 mph SW14.8 kmh SW 10.7 mph17.2 kmh 29.64 in1003.7 mb 0.00 in0.0 mm 0.00 in0.0 mm 0.05 in1.3 mm
05:22 PM 54.5°F12.5°C 46.4°F8.0°C 74% 13.0 mph S20.9 kmh S 19.7 mph31.7 kmh 29.64 in1003.7 mb 0.00 in0.0 mm 0.00 in0.0 mm 0.05 in1.3 mm
05:24 PM 54.5°F12.5°C 46.4°F8.0°C 74% 13.7 mph SW22.0 kmh SW 17.5 mph28.2 kmh 29.64 in1003.7 mb 0.00 in0.0 mm 0.00 in0.0 mm 0.05 in1.3 mm
05:26 PM 54.5°F12.5°C 46.7°F8.2°C 75% 10.7 mph S17.2 kmh S 17.5 mph28.2 kmh 29.63 in1003.4 mb 0.00 in0.0 mm 0.00 in0.0 mm 0.05 in1.3 mm
05:28 PM 54.3°F12.4°C 47.6°F8.7°C 78% 9.8 mph S15.8 kmh S 12.1 mph19.5 kmh 29.64 in1003.7 mb 0.00 in0.0 mm 0.00 in0.0 mm 0.05 in1.3 mm
05:30 PM 54.3°F12.4°C 47.6°F8.7°C 78% 8.3 mph S13.4 kmh S 13.7 mph22.0 kmh 29.64 in1003.7 mb 0.00 in0.0 mm 0.00 in0.0 mm 0.05 in1.3 mm
05:32 PM 54.3°F12.4°C 48.0°F8.9°C 79% 10.7 mph S17.2 kmh S 13.0 mph20.9 kmh 29.63 in1003.4 mb 0.00 in0.0 mm 0.00 in0.0 mm 0.05 in1.3 mm
05:34 PM 54.3°F12.4°C 48.0°F8.9°C 79% 11.4 mph SW18.3 kmh SW 14.5 mph23.3 kmh 29.63 in1003.4 mb 0.00 in0.0 mm 0.00 in0.0 mm 0.05 in1.3 mm
05:36 PM 54.3°F12.4°C 48.0°F8.9°C 79% 6.0 mph S9.7 kmh S 6.9 mph11.1 kmh 29.63 in1003.4 mb 0.00 in0.0 mm 0.00 in0.0 mm 0.05 in1.3 mm
05:38 PM 54.3°F12.4°C 48.0°F8.9°C 79% 12.1 mph S19.5 kmh S 17.5 mph28.2 kmh 29.63 in1003.4 mb 0.00 in0.0 mm 0.00 in0.0 mm 0.05 in1.3 mm
05:40 PM 54.1°F12.3°C 47.8°F8.8°C 79% 7.6 mph SW12.2 kmh SW 9.2 mph14.8 kmh 29.64 in1003.7 mb 0.00 in0.0 mm 0.00 in0.0 mm 0.05 in1.3 mm
05:42 PM 54.1°F12.3°C 47.8°F8.8°C 79% 10.7 mph SE17.2 kmh SE 13.0 mph20.9 kmh 29.63 in1003.4 mb 0.00 in0.0 mm 0.00 in0.0 mm 0.05 in1.3 mm
05:44 PM 54.1°F12.3°C 47.8°F8.8°C 79% 7.6 mph SE12.2 kmh SE 13.7 mph22.0 kmh 29.64 in1003.7 mb 0.00 in0.0 mm 0.00 in0.0 mm 0.05 in1.3 mm
05:46 PM 54.1°F12.3°C 47.8°F8.8°C 79% 12.1 mph SE19.5 kmh SE 14.5 mph23.3 kmh 29.64 in1003.7 mb 0.00 in0.0 mm 0.00 in0.0 mm 0.05 in1.3 mm
05:48 PM 54.1°F12.3°C 47.8°F8.8°C 79% 13.7 mph S22.0 kmh S 19.7 mph31.7 kmh 29.63 in1003.4 mb 0.00 in0.0 mm 0.00 in0.0 mm 0.05 in1.3 mm
05:50 PM 54.1°F12.3°C 47.8°F8.8°C 79% 17.5 mph S28.2 kmh S 25.1 mph40.4 kmh 29.63 in1003.4 mb 0.00 in0.0 mm 0.00 in0.0 mm 0.05 in1.3 mm
05:52 PM 54.1°F12.3°C 47.8°F8.8°C 79% 13.7 mph SE22.0 kmh SE 17.5 mph28.2 kmh 29.64 in1003.7 mb 0.00 in0.0 mm 0.00 in0.0 mm 0.05 in1.3 mm
05:54 PM 54.0°F12.2°C 47.6°F8.7°C 79% 14.5 mph S23.3 kmh S 17.5 mph28.2 kmh 29.63 in1003.4 mb 0.00 in0.0 mm 0.00 in0.0 mm 0.05 in1.3 mm
05:56 PM 54.0°F12.2°C 47.6°F8.7°C 79% 13.7 mph S22.0 kmh S 18.3 mph29.5 kmh 29.63 in1003.4 mb 0.00 in0.0 mm 0.00 in0.0 mm 0.05 in1.3 mm
05:58 PM 54.0°F12.2°C 47.6°F8.7°C 79% 17.5 mph S28.2 kmh S 21.3 mph34.3 kmh 29.63 in1003.4 mb 0.00 in0.0 mm 0.00 in0.0 mm 0.05 in1.3 mm
06:00 PM 53.8°F12.1°C 47.4°F8.6°C 79% 14.5 mph S23.3 kmh S 19.0 mph30.6 kmh 29.63 in1003.4 mb 0.00 in0.0 mm 0.00 in0.0 mm 0.05 in1.3 mm
06:02 PM 53.8°F12.1°C 47.4°F8.6°C 79% 10.7 mph S17.2 kmh S 13.7 mph22.0 kmh 29.64 in1003.7 mb 0.00 in0.0 mm 0.00 in0.0 mm 0.05 in1.3 mm
06:04 PM 53.8°F12.1°C 47.8°F8.8°C 80% 13.0 mph S20.9 kmh S 15.2 mph24.5 kmh 29.63 in1003.4 mb 0.00 in0.0 mm 0.00 in0.0 mm 0.05 in1.3 mm
06:06 PM 53.8°F12.1°C 47.8°F8.8°C 80% 15.9 mph SSE25.6 kmh SSE 26.0 mph41.8 kmh 29.63 in1003.4 mb 0.00 in0.0 mm 0.00 in0.0 mm 0.05 in1.3 mm
06:09 PM 53.8°F12.1°C 47.8°F8.8°C 80% 13.7 mph SSE22.0 kmh SSE 16.8 mph27.0 kmh 29.64 in1003.7 mb 0.00 in0.0 mm 0.00 in0.0 mm 0.05 in1.3 mm
06:11 PM 53.8°F12.1°C 47.8°F8.8°C 80% 13.7 mph SE22.0 kmh SE 18.3 mph29.5 kmh 29.64 in1003.7 mb 0.00 in0.0 mm 0.00 in0.0 mm 0.05 in1.3 mm
06:13 PM 53.6°F12.0°C 47.6°F8.7°C 80% 11.4 mph S18.3 kmh S 15.9 mph25.6 kmh 29.64 in1003.7 mb 0.00 in0.0 mm 0.00 in0.0 mm 0.05 in1.3 mm
06:15 PM 53.6°F12.0°C 47.6°F8.7°C 80% 6.9 mph S11.1 kmh S 9.2 mph14.8 kmh 29.63 in1003.4 mb 0.00 in0.0 mm 0.00 in0.0 mm 0.05 in1.3 mm
06:17 PM 53.6°F12.0°C 47.6°F8.7°C 80% 6.9 mph S11.1 kmh S 8.3 mph13.4 kmh 29.64 in1003.7 mb 0.00 in0.0 mm 0.00 in0.0 mm 0.05 in1.3 mm
06:19 PM 53.6°F12.0°C 47.6°F8.7°C 80% 12.1 mph SSE19.5 kmh SSE 14.5 mph23.3 kmh 29.64 in1003.7 mb 0.00 in0.0 mm 0.00 in0.0 mm 0.05 in1.3 mm
06:21 PM 53.6°F12.0°C 47.9°F8.8°C 81% 15.9 mph SSE25.6 kmh SSE 18.3 mph29.5 kmh 29.64 in1003.7 mb 0.00 in0.0 mm 0.00 in0.0 mm 0.05 in1.3 mm
06:23 PM 53.4°F11.9°C 47.7°F8.7°C 81% 15.2 mph S24.5 kmh S 19.7 mph31.7 kmh 29.64 in1003.7 mb 0.00 in0.0 mm 0.00 in0.0 mm 0.05 in1.3 mm
06:25 PM 53.4°F11.9°C 47.7°F8.7°C 81% 9.8 mph SSE15.8 kmh SSE 13.7 mph22.0 kmh 29.64 in1003.7 mb 0.00 in0.0 mm 0.00 in0.0 mm 0.05 in1.3 mm
06:27 PM 53.2°F11.8°C 47.6°F8.7°C 81% 11.4 mph SE18.3 kmh SE 15.2 mph24.5 kmh 29.64 in1003.7 mb 0.00 in0.0 mm 0.00 in0.0 mm 0.05 in1.3 mm
06:29 PM 53.2°F11.8°C 47.6°F8.7°C 81% 15.2 mph SE24.5 kmh SE 19.0 mph30.6 kmh 29.63 in1003.4 mb 0.00 in0.0 mm 0.00 in0.0 mm 0.05 in1.3 mm
06:31 PM 53.2°F11.8°C 47.9°F8.8°C 82% 6.9 mph SE11.1 kmh SE 9.8 mph15.8 kmh 29.63 in1003.4 mb 0.00 in0.0 mm 0.00 in0.0 mm 0.05 in1.3 mm
06:33 PM 53.2°F11.8°C 47.9°F8.8°C 82% 9.2 mph S14.8 kmh S 11.4 mph18.3 kmh 29.64 in1003.7 mb 0.00 in0.0 mm 0.00 in0.0 mm 0.05 in1.3 mm
06:35 PM 53.2°F11.8°C 47.9°F8.8°C 82% 8.3 mph S13.4 kmh S 12.1 mph19.5 kmh 29.63 in1003.4 mb 0.00 in0.0 mm 0.00 in0.0 mm 0.05 in1.3 mm
06:37 PM 53.2°F11.8°C 47.9°F8.8°C 82% 9.8 mph S15.8 kmh S 12.1 mph19.5 kmh 29.64 in1003.7 mb 0.00 in0.0 mm 0.00 in0.0 mm 0.05 in1.3 mm
06:39 PM 53.2°F11.8°C 47.9°F8.8°C 82% 9.2 mph S14.8 kmh S 12.1 mph19.5 kmh 29.64 in1003.7 mb 0.00 in0.0 mm 0.00 in0.0 mm 0.05 in1.3 mm
06:41 PM 53.2°F11.8°C 47.9°F8.8°C 82% 13.0 mph SE20.9 kmh SE 18.3 mph29.5 kmh 29.64 in1003.7 mb 0.00 in0.0 mm 0.00 in0.0 mm 0.05 in1.3 mm
06:43 PM 53.1°F11.7°C 47.7°F8.7°C 82% 11.4 mph S18.3 kmh S 13.7 mph22.0 kmh 29.64 in1003.7 mb 0.00 in0.0 mm 0.00 in0.0 mm 0.05 in1.3 mm
06:45 PM 53.1°F11.7°C 48.0°F8.9°C 83% 6.9 mph SE11.1 kmh SE 10.7 mph17.2 kmh 29.64 in1003.7 mb 0.00 in0.0 mm 0.00 in0.0 mm 0.05 in1.3 mm
06:47 PM 53.1°F11.7°C 48.0°F8.9°C 83% 10.7 mph SSE17.2 kmh SSE 14.5 mph23.3 kmh 29.65 in1004.1 mb 0.00 in0.0 mm 0.00 in0.0 mm 0.05 in1.3 mm
06:49 PM 53.1°F11.7°C 48.0°F8.9°C 83% 6.9 mph S11.1 kmh S 9.2 mph14.8 kmh 29.64 in1003.7 mb 0.00 in0.0 mm 0.00 in0.0 mm 0.05 in1.3 mm
06:51 PM 52.9°F11.6°C 47.9°F8.8°C 83% 6.0 mph S9.7 kmh S 7.6 mph12.2 kmh 29.64 in1003.7 mb 0.00 in0.0 mm 0.00 in0.0 mm 0.05 in1.3 mm
06:53 PM 52.9°F11.6°C 47.9°F8.8°C 83% 8.3 mph S13.4 kmh S 9.8 mph15.8 kmh 29.64 in1003.7 mb 0.00 in0.0 mm 0.00 in0.0 mm 0.05 in1.3 mm
06:55 PM 52.9°F11.6°C 47.9°F8.8°C 83% 12.1 mph S19.5 kmh S 15.9 mph25.6 kmh 29.65 in1004.1 mb 0.00 in0.0 mm 0.00 in0.0 mm 0.05 in1.3 mm
06:57 PM 52.7°F11.5°C 48.0°F8.9°C 84% 8.3 mph SE13.4 kmh SE 13.0 mph20.9 kmh 29.65 in1004.1 mb 0.00 in0.0 mm 0.00 in0.0 mm 0.05 in1.3 mm
06:59 PM 52.7°F11.5°C 48.0°F8.9°C 84% 10.7 mph SSE17.2 kmh SSE 11.4 mph18.3 kmh 29.65 in1004.1 mb 0.00 in0.0 mm 0.00 in0.0 mm 0.05 in1.3 mm
07:01 PM 52.7°F11.5°C 48.0°F8.9°C 84% 9.2 mph S14.8 kmh S 12.1 mph19.5 kmh 29.65 in1004.1 mb 0.00 in0.0 mm 0.00 in0.0 mm 0.05 in1.3 mm
07:03 PM 52.7°F11.5°C 48.0°F8.9°C 84% 8.3 mph S13.4 kmh S 9.8 mph15.8 kmh 29.64 in1003.7 mb 0.00 in0.0 mm 0.00 in0.0 mm 0.05 in1.3 mm
07:05 PM 52.7°F11.5°C 48.0°F8.9°C 84% 8.3 mph S13.4 kmh S 9.8 mph15.8 kmh 29.65 in1004.1 mb 0.00 in0.0 mm 0.00 in0.0 mm 0.05 in1.3 mm
07:07 PM 52.7°F11.5°C 48.3°F9.1°C 85% 7.6 mph SE12.2 kmh SE 9.2 mph14.8 kmh 29.65 in1004.1 mb 0.00 in0.0 mm 0.00 in0.0 mm 0.05 in1.3 mm
07:09 PM 52.7°F11.5°C 48.3°F9.1°C 85% 7.6 mph S12.2 kmh S 11.4 mph18.3 kmh 29.64 in1003.7 mb 0.00 in0.0 mm 0.00 in0.0 mm 0.05 in1.3 mm
07:11 PM 52.5°F11.4°C 48.1°F8.9°C 85% 9.2 mph SE14.8 kmh SE 13.7 mph22.0 kmh 29.65 in1004.1 mb 0.00 in0.0 mm 0.00 in0.0 mm 0.05 in1.3 mm
07:13 PM 52.5°F11.4°C 48.1°F8.9°C 85% 7.6 mph S12.2 kmh S 9.2 mph14.8 kmh 29.65 in1004.1 mb 0.00 in0.0 mm 0.00 in0.0 mm 0.05 in1.3 mm
07:15 PM 52.5°F11.4°C 48.1°F8.9°C 85% 9.8 mph S15.8 kmh S 12.1 mph19.5 kmh 29.64 in1003.7 mb 0.00 in0.0 mm 0.00 in0.0 mm 0.05 in1.3 mm
07:17 PM 52.5°F11.4°C 48.1°F8.9°C 85% 6.0 mph SE9.7 kmh SE 8.3 mph13.4 kmh 29.64 in1003.7 mb 0.00 in0.0 mm 0.00 in0.0 mm 0.05 in1.3 mm
07:19 PM 52.5°F11.4°C 48.1°F8.9°C 85% 7.6 mph S12.2 kmh S 8.3 mph13.4 kmh 29.65 in1004.1 mb 0.00 in0.0 mm 0.00 in0.0 mm 0.05 in1.3 mm
07:21 PM 52.5°F11.4°C 48.1°F8.9°C 85% 8.3 mph SE13.4 kmh SE 10.7 mph17.2 kmh 29.65 in1004.1 mb 0.00 in0.0 mm 0.00 in0.0 mm 0.05 in1.3 mm
07:23 PM 52.3°F11.3°C 48.0°F8.9°C 85% 16.8 mph SE27.0 kmh SE 19.0 mph30.6 kmh 29.65 in1004.1 mb 0.00 in0.0 mm 0.00 in0.0 mm 0.05 in1.3 mm
07:25 PM 52.3°F11.3°C 48.3°F9.1°C 86% 8.3 mph S13.4 kmh S 10.7 mph17.2 kmh 29.65 in1004.1 mb 0.00 in0.0 mm 0.00 in0.0 mm 0.05 in1.3 mm
07:27 PM 52.3°F11.3°C 48.3°F9.1°C 86% 13.7 mph S22.0 kmh S 16.8 mph27.0 kmh 29.65 in1004.1 mb 0.01 in0.3 mm 0.35 in8.9 mm 0.06 in1.5 mm
07:29 PM 52.3°F11.3°C 48.3°F9.1°C 86% 6.9 mph S11.1 kmh S 9.2 mph14.8 kmh 29.65 in1004.1 mb 0.01 in0.3 mm 0.00 in0.0 mm 0.06 in1.5 mm
07:31 PM 52.3°F11.3°C 48.3°F9.1°C 86% 9.2 mph S14.8 kmh S 12.1 mph19.5 kmh 29.65 in1004.1 mb 0.01 in0.3 mm 0.00 in0.0 mm 0.06 in1.5 mm
07:33 PM 52.3°F11.3°C 48.3°F9.1°C 86% 7.6 mph S12.2 kmh S 9.8 mph15.8 kmh 29.66 in1004.4 mb 0.01 in0.3 mm 0.00 in0.0 mm 0.06 in1.5 mm
07:35 PM 52.3°F11.3°C 48.3°F9.1°C 86% 10.7 mph S17.2 kmh S 12.1 mph19.5 kmh 29.66 in1004.4 mb 0.01 in0.3 mm 0.00 in0.0 mm 0.06 in1.5 mm
07:37 PM 52.3°F11.3°C 48.3°F9.1°C 86% 7.6 mph SSE12.2 kmh SSE 9.8 mph15.8 kmh 29.66 in1004.4 mb 0.01 in0.3 mm 0.00 in0.0 mm 0.06 in1.5 mm
07:39 PM 52.3°F11.3°C 48.3°F9.1°C 86% 9.2 mph SE14.8 kmh SE 11.4 mph18.3 kmh 29.66 in1004.4 mb 0.01 in0.3 mm 0.00 in0.0 mm 0.06 in1.5 mm
07:41 PM 52.3°F11.3°C 48.3°F9.1°C 86% 5.4 mph S8.7 kmh S 7.6 mph12.2 kmh 29.65 in1004.1 mb 0.01 in0.3 mm 0.00 in0.0 mm 0.06 in1.5 mm
07:43 PM 52.3°F11.3°C 48.3°F9.1°C 86% 6.9 mph S11.1 kmh S 9.2 mph14.8 kmh 29.65 in1004.1 mb 0.01 in0.3 mm 0.00 in0.0 mm 0.06 in1.5 mm
07:45 PM 52.3°F11.3°C 48.3°F9.1°C 86% 6.0 mph S9.7 kmh S 9.8 mph15.8 kmh 29.65 in1004.1 mb 0.01 in0.3 mm 0.00 in0.0 mm 0.06 in1.5 mm
07:47 PM 52.3°F11.3°C 48.3°F9.1°C 86% 7.6 mph SSW12.2 kmh SSW 11.4 mph18.3 kmh 29.65 in1004.1 mb 0.01 in0.3 mm 0.00 in0.0 mm 0.06 in1.5 mm
07:49 PM 52.2°F11.2°C 48.1°F8.9°C 86% 6.9 mph S11.1 kmh S 8.3 mph13.4 kmh 29.65 in1004.1 mb 0.01 in0.3 mm 0.00 in0.0 mm 0.06 in1.5 mm
07:51 PM 52.2°F11.2°C 48.1°F8.9°C 86% 11.4 mph S18.3 kmh S 13.7 mph22.0 kmh 29.65 in1004.1 mb 0.01 in0.3 mm 0.00 in0.0 mm 0.06 in1.5 mm
07:53 PM 52.3°F11.3°C 48.3°F9.1°C 86% 8.3 mph S13.4 kmh S 10.7 mph17.2 kmh 29.65 in1004.1 mb 0.01 in0.3 mm 0.00 in0.0 mm 0.06 in1.5 mm
07:55 PM 52.3°F11.3°C 48.3°F9.1°C 86% 14.5 mph S23.3 kmh S 16.8 mph27.0 kmh 29.65 in1004.1 mb 0.01 in0.3 mm 0.00 in0.0 mm 0.06 in1.5 mm
07:57 PM 52.3°F11.3°C 48.3°F9.1°C 86% 7.6 mph S12.2 kmh S 11.4 mph18.3 kmh 29.66 in1004.4 mb 0.01 in0.3 mm 0.00 in0.0 mm 0.06 in1.5 mm
07:59 PM 52.3°F11.3°C 48.3°F9.1°C 86% 13.7 mph S22.0 kmh S 19.7 mph31.7 kmh 29.66 in1004.4 mb 0.01 in0.3 mm 0.00 in0.0 mm 0.06 in1.5 mm
08:01 PM 52.3°F11.3°C 48.3°F9.1°C 86% 13.7 mph S22.0 kmh S 19.7 mph31.7 kmh 29.66 in1004.4 mb 0.01 in0.3 mm 0.00 in0.0 mm 0.06 in1.5 mm
08:03 PM 52.3°F11.3°C 48.3°F9.1°C 86% 13.7 mph S22.0 kmh S 19.7 mph31.7 kmh 29.66 in1004.4 mb 0.01 in0.3 mm 0.00 in0.0 mm 0.06 in1.5 mm
08:05 PM 52.3°F11.3°C 48.3°F9.1°C 86% 13.7 mph S22.0 kmh S 19.7 mph31.7 kmh 29.66 in1004.4 mb 0.01 in0.3 mm 0.00 in0.0 mm 0.06 in1.5 mm
08:07 PM 52.3°F11.3°C 48.3°F9.1°C 86% 13.7 mph S22.0 kmh S 19.7 mph31.7 kmh 29.65 in1004.1 mb 0.01 in0.3 mm 0.00 in0.0 mm 0.06 in1.5 mm
08:09 PM 52.2°F11.2°C 48.4°F9.1°C 87% 11.4 mph S18.3 kmh S 17.5 mph28.2 kmh 29.66 in1004.4 mb 0.02 in0.5 mm 0.35 in8.9 mm 0.07 in1.8 mm
08:11 PM 52.2°F11.2°C 48.4°F9.1°C 87% 6.9 mph S11.1 kmh S 8.3 mph13.4 kmh 29.65 in1004.1 mb 0.02 in0.5 mm 0.00 in0.0 mm 0.07 in1.8 mm
08:13 PM 52.2°F11.2°C 48.4°F9.1°C 87% 8.3 mph S13.4 kmh S 12.1 mph19.5 kmh 29.66 in1004.4 mb 0.02 in0.5 mm 0.00 in0.0 mm 0.07 in1.8 mm
08:15 PM 52.2°F11.2°C 48.4°F9.1°C 87% 9.8 mph SSW15.8 kmh SSW 11.4 mph18.3 kmh 29.66 in1004.4 mb 0.02 in0.5 mm 0.00 in0.0 mm 0.07 in1.8 mm
08:17 PM 52.2°F11.2°C 48.4°F9.1°C 87% 6.9 mph S11.1 kmh S 7.6 mph12.2 kmh 29.65 in1004.1 mb 0.02 in0.5 mm 0.00 in0.0 mm 0.07 in1.8 mm
08:19 PM 52.2°F11.2°C 48.4°F9.1°C 87% 8.3 mph S13.4 kmh S 9.8 mph15.8 kmh 29.65 in1004.1 mb 0.02 in0.5 mm 0.00 in0.0 mm 0.07 in1.8 mm
08:21 PM 52.2°F11.2°C 48.4°F9.1°C 87% 10.7 mph S17.2 kmh S 13.0 mph20.9 kmh 29.66 in1004.4 mb 0.02 in0.5 mm 0.00 in0.0 mm 0.07 in1.8 mm
08:23 PM 52.2°F11.2°C 48.4°F9.1°C 87% 9.2 mph S14.8 kmh S 13.0 mph20.9 kmh 29.65 in1004.1 mb 0.02 in0.5 mm 0.00 in0.0 mm 0.07 in1.8 mm
08:25 PM 52.2°F11.2°C 48.4°F9.1°C 87% 9.8 mph S15.8 kmh S 13.7 mph22.0 kmh 29.65 in1004.1 mb 0.01 in0.3 mm 0.00 in0.0 mm 0.07 in1.8 mm
08:27 PM 52.2°F11.2°C 48.4°F9.1°C 87% 8.3 mph S13.4 kmh S 13.7 mph22.0 kmh 29.66 in1004.4 mb 0.02 in0.5 mm 0.35 in8.9 mm 0.08 in2.0 mm
08:29 PM 52.0°F11.1°C 48.2°F9.0°C 87% 7.6 mph SSE12.2 kmh SSE 9.8 mph15.8 kmh 29.66 in1004.4 mb 0.02 in0.5 mm 0.00 in0.0 mm 0.08 in2.0 mm
08:31 PM 52.0°F11.1°C 48.2°F9.0°C 87% 7.6 mph SE12.2 kmh SE 9.8 mph15.8 kmh 29.65 in1004.1 mb 0.02 in0.5 mm 0.00 in0.0 mm 0.08 in2.0 mm
08:33 PM 52.0°F11.1°C 48.2°F9.0°C 87% 7.6 mph S12.2 kmh S 9.2 mph14.8 kmh 29.65 in1004.1 mb 0.02 in0.5 mm 0.00 in0.0 mm 0.08 in2.0 mm
08:35 PM 52.0°F11.1°C 48.2°F9.0°C 87% 8.3 mph SSW13.4 kmh SSW 11.4 mph18.3 kmh 29.65 in1004.1 mb 0.02 in0.5 mm 0.00 in0.0 mm 0.08 in2.0 mm
08:37 PM 52.0°F11.1°C 48.2°F9.0°C 87% 6.0 mph S9.7 kmh S 10.7 mph17.2 kmh 29.64 in1003.7 mb 0.02 in0.5 mm 0.00 in0.0 mm 0.08 in2.0 mm
08:39 PM 52.0°F11.1°C 48.2°F9.0°C 87% 9.8 mph S15.8 kmh S 12.1 mph19.5 kmh 29.65 in1004.1 mb 0.02 in0.5 mm 0.00 in0.0 mm 0.08 in2.0 mm
08:41 PM 51.8°F11.0°C 48.1°F8.9°C 87% 8.3 mph SSE13.4 kmh SSE 9.8 mph15.8 kmh 29.64 in1003.7 mb 0.02 in0.5 mm 0.00 in0.0 mm 0.08 in2.0 mm
08:43 PM 51.8°F11.0°C 48.1°F8.9°C 87% 11.4 mph S18.3 kmh S 13.7 mph22.0 kmh 29.64 in1003.7 mb 0.02 in0.5 mm 0.00 in0.0 mm 0.08 in2.0 mm
08:45 PM 51.8°F11.0°C 48.1°F8.9°C 87% 12.1 mph S19.5 kmh S 14.5 mph23.3 kmh 29.63 in1003.4 mb 0.02 in0.5 mm 0.00 in0.0 mm 0.08 in2.0 mm
08:47 PM 51.8°F11.0°C 48.1°F8.9°C 87% 10.7 mph S17.2 kmh S 15.2 mph24.5 kmh 29.64 in1003.7 mb 0.02 in0.5 mm 0.00 in0.0 mm 0.08 in2.0 mm
08:49 PM 51.8°F11.0°C 48.1°F8.9°C 87% 10.7 mph SSE17.2 kmh SSE 12.1 mph19.5 kmh 29.64 in1003.7 mb 0.02 in0.5 mm 0.00 in0.0 mm 0.08 in2.0 mm
08:51 PM 51.8°F11.0°C 48.1°F8.9°C 87% 6.9 mph SE11.1 kmh SE 8.3 mph13.4 kmh 29.64 in1003.7 mb 0.02 in0.5 mm 0.00 in0.0 mm 0.08 in2.0 mm
08:53 PM 51.8°F11.0°C 48.1°F8.9°C 87% 9.2 mph S14.8 kmh S 11.4 mph18.3 kmh 29.64 in1003.7 mb 0.02 in0.5 mm 0.00 in0.0 mm 0.08 in2.0 mm
08:55 PM 51.8°F11.0°C 48.1°F8.9°C 87% 8.3 mph SE13.4 kmh SE 10.7 mph17.2 kmh 29.64 in1003.7 mb 0.02 in0.5 mm 0.00 in0.0 mm 0.08 in2.0 mm
08:57 PM 51.8°F11.0°C 48.1°F8.9°C 87% 3.1 mph SW5.0 kmh SW 4.5 mph7.2 kmh 29.64 in1003.7 mb 0.02 in0.5 mm 0.00 in0.0 mm 0.08 in2.0 mm
08:59 PM 51.8°F11.0°C 48.1°F8.9°C 87% 2.2 mph S3.5 kmh S 3.1 mph5.0 kmh 29.64 in1003.7 mb 0.02 in0.5 mm 0.00 in0.0 mm 0.08 in2.0 mm
09:01 PM 51.6°F10.9°C 47.9°F8.8°C 87% 5.4 mph SE8.7 kmh SE 7.6 mph12.2 kmh 29.64 in1003.7 mb 0.02 in0.5 mm 0.00 in0.0 mm 0.08 in2.0 mm
09:03 PM 51.6°F10.9°C 47.9°F8.8°C 87% 6.0 mph S9.7 kmh S 8.3 mph13.4 kmh 29.63 in1003.4 mb 0.02 in0.5 mm 0.00 in0.0 mm 0.08 in2.0 mm
09:05 PM 51.6°F10.9°C 47.9°F8.8°C 87% 9.8 mph S15.8 kmh S 13.0 mph20.9 kmh 29.64 in1003.7 mb 0.02 in0.5 mm 0.00 in0.0 mm 0.08 in2.0 mm
09:07 PM 51.8°F11.0°C 48.1°F8.9°C 87% 6.0 mph SE9.7 kmh SE 7.6 mph12.2 kmh 29.63 in1003.4 mb 0.01 in0.3 mm 0.00 in0.0 mm 0.08 in2.0 mm
09:11 PM 51.8°F11.0°C 48.1°F8.9°C 87% 5.4 mph S8.7 kmh S 6.0 mph9.7 kmh 29.64 in1003.7 mb 0.01 in0.3 mm 0.00 in0.0 mm 0.08 in2.0 mm
09:13 PM 51.8°F11.0°C 48.1°F8.9°C 87% 6.9 mph S11.1 kmh S 10.7 mph17.2 kmh 29.65 in1004.1 mb 0.01 in0.3 mm 0.00 in0.0 mm 0.08 in2.0 mm
09:15 PM 51.8°F11.0°C 48.1°F8.9°C 87% 9.8 mph S15.8 kmh S 11.4 mph18.3 kmh 29.64 in1003.7 mb 0.01 in0.3 mm 0.00 in0.0 mm 0.08 in2.0 mm
09:17 PM 51.8°F11.0°C 48.1°F8.9°C 87% 4.5 mph S7.2 kmh S 6.9 mph11.1 kmh 29.64 in1003.7 mb 0.01 in0.3 mm 0.00 in0.0 mm 0.08 in2.0 mm
09:19 PM 51.8°F11.0°C 48.1°F8.9°C 87% 6.9 mph S11.1 kmh S 8.3 mph13.4 kmh 29.64 in1003.7 mb 0.01 in0.3 mm 0.00 in0.0 mm 0.08 in2.0 mm
09:21 PM 51.8°F11.0°C 48.1°F8.9°C 87% 5.4 mph SE8.7 kmh SE 9.2 mph14.8 kmh 29.64 in1003.7 mb 0.01 in0.3 mm 0.00 in0.0 mm 0.08 in2.0 mm
09:23 PM 52.0°F11.1°C 48.2°F9.0°C 87% 4.5 mph S7.2 kmh S 5.4 mph8.7 kmh 29.64 in1003.7 mb 0.01 in0.3 mm 0.00 in0.0 mm 0.08 in2.0 mm
09:25 PM 52.0°F11.1°C 48.2°F9.0°C 87% 5.4 mph S8.7 kmh S 6.9 mph11.1 kmh 29.64 in1003.7 mb 0.00 in0.0 mm 0.00 in0.0 mm 0.08 in2.0 mm
09:27 PM 52.0°F11.1°C 48.2°F9.0°C 87% 5.4 mph NNE8.7 kmh NNE 10.7 mph17.2 kmh 29.64 in1003.7 mb 0.00 in0.0 mm 0.00 in0.0 mm 0.08 in2.0 mm
09:29 PM 52.0°F11.1°C 48.2°F9.0°C 87% 7.6 mph S12.2 kmh S 9.8 mph15.8 kmh 29.63 in1003.4 mb 0.00 in0.0 mm 0.00 in0.0 mm 0.08 in2.0 mm
09:31 PM 52.0°F11.1°C 48.2°F9.0°C 87% 13.7 mph SSE22.0 kmh SSE 18.3 mph29.5 kmh 29.64 in1003.7 mb 0.00 in0.0 mm 0.00 in0.0 mm 0.08 in2.0 mm
09:33 PM 52.0°F11.1°C 48.2°F9.0°C 87% 5.4 mph S8.7 kmh S 6.9 mph11.1 kmh 29.64 in1003.7 mb 0.00 in0.0 mm 0.00 in0.0 mm 0.08 in2.0 mm
09:35 PM 52.0°F11.1°C 48.2°F9.0°C 87% 13.0 mph SSE20.9 kmh SSE 16.8 mph27.0 kmh 29.63 in1003.4 mb 0.00 in0.0 mm 0.00 in0.0 mm 0.08 in2.0 mm
09:37 PM 52.2°F11.2°C 48.4°F9.1°C 87% 13.7 mph S22.0 kmh S 19.0 mph30.6 kmh 29.64 in1003.7 mb 0.00 in0.0 mm 0.00 in0.0 mm 0.08 in2.0 mm
09:40 PM 52.2°F11.2°C 48.4°F9.1°C 87% 12.1 mph S19.5 kmh S 16.8 mph27.0 kmh 29.64 in1003.7 mb 0.00 in0.0 mm 0.00 in0.0 mm 0.08 in2.0 mm
09:42 PM 52.2°F11.2°C 48.4°F9.1°C 87% 9.2 mph SE14.8 kmh SE 11.4 mph18.3 kmh 29.64 in1003.7 mb 0.00 in0.0 mm 0.00 in0.0 mm 0.08 in2.0 mm
09:44 PM 52.2°F11.2°C 48.4°F9.1°C 87% 8.3 mph S13.4 kmh S 9.8 mph15.8 kmh 29.64 in1003.7 mb 0.00 in0.0 mm 0.00 in0.0 mm 0.08 in2.0 mm
09:46 PM 52.2°F11.2°C 48.4°F9.1°C 87% 9.2 mph S14.8 kmh S 10.7 mph17.2 kmh 29.64 in1003.7 mb 0.00 in0.0 mm 0.00 in0.0 mm 0.08 in2.0 mm
09:48 PM 52.2°F11.2°C 48.4°F9.1°C 87% 8.3 mph SE13.4 kmh SE 11.4 mph18.3 kmh 29.65 in1004.1 mb 0.00 in0.0 mm 0.00 in0.0 mm 0.08 in2.0 mm
09:50 PM 52.2°F11.2°C 48.4°F9.1°C 87% 5.4 mph S8.7 kmh S 8.3 mph13.4 kmh 29.64 in1003.7 mb 0.00 in0.0 mm 0.00 in0.0 mm 0.08 in2.0 mm
09:52 PM 52.2°F11.2°C 48.4°F9.1°C 87% 7.6 mph S12.2 kmh S 9.2 mph14.8 kmh 29.64 in1003.7 mb 0.00 in0.0 mm 0.00 in0.0 mm 0.08 in2.0 mm
09:54 PM 52.2°F11.2°C 48.4°F9.1°C 87% 6.0 mph SE9.7 kmh SE 8.3 mph13.4 kmh 29.64 in1003.7 mb 0.00 in0.0 mm 0.00 in0.0 mm 0.08 in2.0 mm
09:56 PM 52.2°F11.2°C 48.4°F9.1°C 87% 5.4 mph S8.7 kmh S 6.0 mph9.7 kmh 29.64 in1003.7 mb 0.00 in0.0 mm 0.00 in0.0 mm 0.08 in2.0 mm
09:58 PM 52.2°F11.2°C 48.4°F9.1°C 87% 3.8 mph SE6.1 kmh SE 6.0 mph9.7 kmh 29.64 in1003.7 mb 0.00 in0.0 mm 0.00 in0.0 mm 0.08 in2.0 mm
10:00 PM 52.2°F11.2°C 48.4°F9.1°C 87% 6.0 mph S9.7 kmh S 9.8 mph15.8 kmh 29.64 in1003.7 mb 0.00 in0.0 mm 0.00 in0.0 mm 0.08 in2.0 mm
10:02 PM 52.2°F11.2°C 48.4°F9.1°C 87% 7.6 mph S12.2 kmh S 9.2 mph14.8 kmh 29.64 in1003.7 mb 0.00 in0.0 mm 0.00 in0.0 mm 0.08 in2.0 mm
10:04 PM 52.2°F11.2°C 48.4°F9.1°C 87% 10.7 mph SE17.2 kmh SE 12.1 mph19.5 kmh 29.64 in1003.7 mb 0.00 in0.0 mm 0.00 in0.0 mm 0.08 in2.0 mm
10:06 PM 52.2°F11.2°C 48.4°F9.1°C 87% 7.6 mph S12.2 kmh S 10.7 mph17.2 kmh 29.64 in1003.7 mb 0.00 in0.0 mm 0.00 in0.0 mm 0.08 in2.0 mm
10:08 PM 52.2°F11.2°C 48.4°F9.1°C 87% 11.4 mph S18.3 kmh S 13.7 mph22.0 kmh 29.64 in1003.7 mb 0.00 in0.0 mm 0.00 in0.0 mm 0.08 in2.0 mm
10:10 PM 52.2°F11.2°C 48.4°F9.1°C 87% 9.8 mph S15.8 kmh S 13.0 mph20.9 kmh 29.64 in1003.7 mb 0.00 in0.0 mm 0.00 in0.0 mm 0.08 in2.0 mm
10:12 PM 52.2°F11.2°C 48.4°F9.1°C 87% 12.1 mph SE19.5 kmh SE 13.7 mph22.0 kmh 29.63 in1003.4 mb 0.00 in0.0 mm 0.00 in0.0 mm 0.08 in2.0 mm
10:14 PM 52.2°F11.2°C 48.4°F9.1°C 87% 8.3 mph SE13.4 kmh SE 11.4 mph18.3 kmh 29.64 in1003.7 mb 0.00 in0.0 mm 0.00 in0.0 mm 0.08 in2.0 mm
10:16 PM 52.2°F11.2°C 48.4°F9.1°C 87% 9.2 mph SE14.8 kmh SE 9.8 mph15.8 kmh 29.64 in1003.7 mb 0.00 in0.0 mm 0.00 in0.0 mm 0.08 in2.0 mm
10:18 PM 52.2°F11.2°C 48.4°F9.1°C 87% 7.6 mph SE12.2 kmh SE 9.8 mph15.8 kmh 29.63 in1003.4 mb 0.00 in0.0 mm 0.00 in0.0 mm 0.08 in2.0 mm
10:20 PM 52.2°F11.2°C 48.4°F9.1°C 87% 9.2 mph SE14.8 kmh SE 13.0 mph20.9 kmh 29.64 in1003.7 mb 0.00 in0.0 mm 0.00 in0.0 mm 0.08 in2.0 mm
10:22 PM 52.2°F11.2°C 48.4°F9.1°C 87% 8.3 mph SE13.4 kmh SE 9.8 mph15.8 kmh 29.63 in1003.4 mb 0.00 in0.0 mm 0.00 in0.0 mm 0.08 in2.0 mm
10:24 PM 52.2°F11.2°C 48.1°F8.9°C 86% 14.5 mph SE23.3 kmh SE 17.5 mph28.2 kmh 29.63 in1003.4 mb 0.00 in0.0 mm 0.00 in0.0 mm 0.08 in2.0 mm
10:26 PM 52.2°F11.2°C 48.1°F8.9°C 86% 12.1 mph S19.5 kmh S 13.7 mph22.0 kmh 29.64 in1003.7 mb 0.00 in0.0 mm 0.00 in0.0 mm 0.08 in2.0 mm
10:28 PM 52.2°F11.2°C 48.1°F8.9°C 86% 7.6 mph S12.2 kmh S 9.8 mph15.8 kmh 29.63 in1003.4 mb 0.00 in0.0 mm 0.00 in0.0 mm 0.08 in2.0 mm
10:30 PM 52.2°F11.2°C 48.1°F8.9°C 86% 6.0 mph S9.7 kmh S 8.3 mph13.4 kmh 29.63 in1003.4 mb 0.01 in0.3 mm 0.35 in8.9 mm 0.09 in2.3 mm
10:32 PM 52.2°F11.2°C 48.1°F8.9°C 86% 7.6 mph S12.2 kmh S 10.7 mph17.2 kmh 29.63 in1003.4 mb 0.01 in0.3 mm 0.00 in0.0 mm 0.09 in2.3 mm
10:34 PM 52.2°F11.2°C 48.1°F8.9°C 86% 9.2 mph SSW14.8 kmh SSW 12.1 mph19.5 kmh 29.63 in1003.4 mb 0.01 in0.3 mm 0.00 in0.0 mm 0.09 in2.3 mm
10:36 PM 52.2°F11.2°C 48.1°F8.9°C 86% 10.7 mph SE17.2 kmh SE 16.8 mph27.0 kmh 29.63 in1003.4 mb 0.01 in0.3 mm 0.00 in0.0 mm 0.09 in2.3 mm
10:38 PM 52.2°F11.2°C 48.1°F8.9°C 86% 9.8 mph S15.8 kmh S 12.1 mph19.5 kmh 29.63 in1003.4 mb 0.01 in0.3 mm 0.00 in0.0 mm 0.09 in2.3 mm
10:40 PM 52.2°F11.2°C 48.1°F8.9°C 86% 7.6 mph S12.2 kmh S 9.2 mph14.8 kmh 29.63 in1003.4 mb 0.01 in0.3 mm 0.00 in0.0 mm 0.09 in2.3 mm
10:42 PM 52.2°F11.2°C 48.1°F8.9°C 86% 13.0 mph S20.9 kmh S 16.8 mph27.0 kmh 29.63 in1003.4 mb 0.01 in0.3 mm 0.00 in0.0 mm 0.09 in2.3 mm
10:44 PM 52.2°F11.2°C 48.1°F8.9°C 86% 10.7 mph SSE17.2 kmh SSE 16.8 mph27.0 kmh 29.63 in1003.4 mb 0.01 in0.3 mm 0.00 in0.0 mm 0.09 in2.3 mm
10:46 PM 52.2°F11.2°C 48.1°F8.9°C 86% 8.3 mph SE13.4 kmh SE 10.7 mph17.2 kmh 29.63 in1003.4 mb 0.01 in0.3 mm 0.00 in0.0 mm 0.09 in2.3 mm
10:48 PM 52.2°F11.2°C 48.1°F8.9°C 86% 11.4 mph SE18.3 kmh SE 15.2 mph24.5 kmh 29.63 in1003.4 mb 0.01 in0.3 mm 0.00 in0.0 mm 0.09 in2.3 mm
10:50 PM 52.2°F11.2°C 48.1°F8.9°C 86% 15.2 mph S24.5 kmh S 18.3 mph29.5 kmh 29.63 in1003.4 mb 0.01 in0.3 mm 0.00 in0.0 mm 0.09 in2.3 mm
10:52 PM 52.2°F11.2°C 48.1°F8.9°C 86% 10.7 mph S17.2 kmh S 13.7 mph22.0 kmh 29.63 in1003.4 mb 0.01 in0.3 mm 0.00 in0.0 mm 0.09 in2.3 mm
10:54 PM 52.2°F11.2°C 48.1°F8.9°C 86% 7.6 mph S12.2 kmh S 9.2 mph14.8 kmh 29.64 in1003.7 mb 0.01 in0.3 mm 0.00 in0.0 mm 0.09 in2.3 mm
10:56 PM 52.2°F11.2°C 48.1°F8.9°C 86% 7.6 mph S12.2 kmh S 11.4 mph18.3 kmh 29.63 in1003.4 mb 0.01 in0.3 mm 0.00 in0.0 mm 0.09 in2.3 mm
10:58 PM 52.2°F11.2°C 48.1°F8.9°C 86% 9.8 mph SE15.8 kmh SE 11.4 mph18.3 kmh 29.63 in1003.4 mb 0.01 in0.3 mm 0.00 in0.0 mm 0.09 in2.3 mm
11:00 PM 52.2°F11.2°C 48.1°F8.9°C 86% 9.2 mph S14.8 kmh S 10.7 mph17.2 kmh 29.63 in1003.4 mb 0.01 in0.3 mm 0.00 in0.0 mm 0.09 in2.3 mm
11:02 PM 52.2°F11.2°C 48.1°F8.9°C 86% 7.6 mph SSE12.2 kmh SSE 9.2 mph14.8 kmh 29.63 in1003.4 mb 0.01 in0.3 mm 0.00 in0.0 mm 0.09 in2.3 mm
11:04 PM 52.2°F11.2°C 47.8°F8.8°C 85% 12.1 mph S19.5 kmh S 14.5 mph23.3 kmh 29.63 in1003.4 mb 0.01 in0.3 mm 0.00 in0.0 mm 0.09 in2.3 mm
11:06 PM 52.2°F11.2°C 47.8°F8.8°C 85% 9.8 mph SE15.8 kmh SE 12.1 mph19.5 kmh 29.63 in1003.4 mb 0.01 in0.3 mm 0.00 in0.0 mm 0.09 in2.3 mm
11:08 PM 52.2°F11.2°C 47.8°F8.8°C 85% 12.1 mph S19.5 kmh S 15.9 mph25.6 kmh 29.63 in1003.4 mb 0.01 in0.3 mm 0.00 in0.0 mm 0.09 in2.3 mm
11:10 PM 52.2°F11.2°C 47.8°F8.8°C 85% 10.7 mph SE17.2 kmh SE 15.9 mph25.6 kmh 29.62 in1003.0 mb 0.01 in0.3 mm 0.00 in0.0 mm 0.09 in2.3 mm
11:12 PM 52.2°F11.2°C 47.8°F8.8°C 85% 9.2 mph SE14.8 kmh SE 9.8 mph15.8 kmh 29.63 in1003.4 mb 0.01 in0.3 mm 0.00 in0.0 mm 0.09 in2.3 mm
11:14 PM 52.2°F11.2°C 47.8°F8.8°C 85% 9.8 mph S15.8 kmh S 12.1 mph19.5 kmh 29.63 in1003.4 mb 0.01 in0.3 mm 0.00 in0.0 mm 0.09 in2.3 mm
11:16 PM 52.2°F11.2°C 47.8°F8.8°C 85% 9.2 mph S14.8 kmh S 13.7 mph22.0 kmh 29.62 in1003.0 mb 0.01 in0.3 mm 0.00 in0.0 mm 0.09 in2.3 mm
11:18 PM 52.2°F11.2°C 47.8°F8.8°C 85% 6.0 mph SE9.7 kmh SE 7.6 mph12.2 kmh 29.63 in1003.4 mb 0.01 in0.3 mm 0.00 in0.0 mm 0.09 in2.3 mm
11:20 PM 52.2°F11.2°C 47.8°F8.8°C 85% 8.3 mph SE13.4 kmh SE 9.8 mph15.8 kmh 29.63 in1003.4 mb 0.01 in0.3 mm 0.00 in0.0 mm 0.09 in2.3 mm
11:22 PM 52.2°F11.2°C 47.8°F8.8°C 85% 15.2 mph S24.5 kmh S 20.6 mph33.2 kmh 29.63 in1003.4 mb 0.01 in0.3 mm 0.00 in0.0 mm 0.09 in2.3 mm
11:24 PM 52.2°F11.2°C 47.8°F8.8°C 85% 10.7 mph SE17.2 kmh SE 14.5 mph23.3 kmh 29.63 in1003.4 mb 0.01 in0.3 mm 0.00 in0.0 mm 0.09 in2.3 mm
11:26 PM 52.2°F11.2°C 47.8°F8.8°C 85% 8.3 mph SE13.4 kmh SE 9.8 mph15.8 kmh 29.62 in1003.0 mb 0.01 in0.3 mm 0.00 in0.0 mm 0.09 in2.3 mm
11:28 PM 52.2°F11.2°C 47.8°F8.8°C 85% 9.2 mph SE14.8 kmh SE 11.4 mph18.3 kmh 29.62 in1003.0 mb 0.01 in0.3 mm 0.00 in0.0 mm 0.09 in2.3 mm
11:30 PM 52.2°F11.2°C 47.5°F8.6°C 84% 9.2 mph SE14.8 kmh SE 13.0 mph20.9 kmh 29.62 in1003.0 mb 0.00 in0.0 mm 0.00 in0.0 mm 0.09 in2.3 mm
11:32 PM 52.2°F11.2°C 47.5°F8.6°C 84% 5.4 mph SE8.7 kmh SE 6.0 mph9.7 kmh 29.62 in1003.0 mb 0.00 in0.0 mm 0.00 in0.0 mm 0.09 in2.3 mm
11:34 PM 52.2°F11.2°C 47.5°F8.6°C 84% 19.0 mph SE30.6 kmh SE 25.1 mph40.4 kmh 29.62 in1003.0 mb 0.00 in0.0 mm 0.00 in0.0 mm 0.09 in2.3 mm
11:36 PM 52.2°F11.2°C 47.5°F8.6°C 84% 15.9 mph SE25.6 kmh SE 19.7 mph31.7 kmh 29.62 in1003.0 mb 0.00 in0.0 mm 0.00 in0.0 mm 0.09 in2.3 mm
11:38 PM 52.2°F11.2°C 47.5°F8.6°C 84% 9.2 mph E14.8 kmh E 12.1 mph19.5 kmh 29.62 in1003.0 mb 0.00 in0.0 mm 0.00 in0.0 mm 0.09 in2.3 mm
11:40 PM 52.2°F11.2°C 47.5°F8.6°C 84% 9.2 mph S14.8 kmh S 22.2 mph35.7 kmh 29.62 in1003.0 mb 0.00 in0.0 mm 0.00 in0.0 mm 0.09 in2.3 mm
11:42 PM 52.2°F11.2°C 47.5°F8.6°C 84% 10.7 mph S17.2 kmh S 14.5 mph23.3 kmh 29.62 in1003.0 mb 0.00 in0.0 mm 0.00 in0.0 mm 0.09 in2.3 mm
11:44 PM 52.2°F11.2°C 47.5°F8.6°C 84% 10.7 mph SSE17.2 kmh SSE 14.5 mph23.3 kmh 29.62 in1003.0 mb 0.00 in0.0 mm 0.00 in0.0 mm 0.09 in2.3 mm
11:46 PM 52.2°F11.2°C 47.5°F8.6°C 84% 11.4 mph SE18.3 kmh SE 15.2 mph24.5 kmh 29.62 in1003.0 mb 0.00 in0.0 mm 0.00 in0.0 mm 0.09 in2.3 mm
11:48 PM 52.2°F11.2°C 47.5°F8.6°C 84% 7.6 mph SE12.2 kmh SE 9.8 mph15.8 kmh 29.62 in1003.0 mb 0.00 in0.0 mm 0.00 in0.0 mm 0.09 in2.3 mm
11:50 PM 52.2°F11.2°C 47.5°F8.6°C 84% 13.0 mph SE20.9 kmh SE 16.8 mph27.0 kmh 29.62 in1003.0 mb 0.00 in0.0 mm 0.00 in0.0 mm 0.09 in2.3 mm
11:52 PM 52.0°F11.1°C 47.3°F8.5°C 84% 12.1 mph S19.5 kmh S 17.5 mph28.2 kmh 29.62 in1003.0 mb 0.00 in0.0 mm 0.00 in0.0 mm 0.09 in2.3 mm
11:54 PM 52.0°F11.1°C 47.3°F8.5°C 84% 12.1 mph ENE19.5 kmh ENE 13.0 mph20.9 kmh 29.61 in1002.7 mb 0.01 in0.3 mm 0.35 in8.9 mm 0.11 in2.8 mm
11:56 PM 52.0°F11.1°C 47.3°F8.5°C 84% 11.4 mph S18.3 kmh S 14.5 mph23.3 kmh 29.61 in1002.7 mb 0.01 in0.3 mm 0.00 in0.0 mm 0.11 in2.8 mm
11:58 PM 52.0°F11.1°C 47.3°F8.5°C 84% 14.5 mph S23.3 kmh S 18.3 mph29.5 kmh 29.61 in1002.7 mb 0.01 in0.3 mm 0.00 in0.0 mm 0.11 in2.8 mm